<?xml version="1.0" encoding="UTF-8" standalone="no" ?>
<gpx xmlns="http://www.topografix.com/GPX/1/1" xmlns:xsi="http://www.w3.org/2001/XMLSchema-instance" xsi:schemaLocation="http://www.topografix.com/GPX/1/1 http://www.topografix.com/GPX/1/1/gpx.xsd" version="1.1" creator="VisuGPX - https://www.visugpx.com">
  <metadata>
    <name>rando sur l'aubrac 50km</name>
  </metadata>
  <trk>
    <name><![CDATA[rando sur l'aubrac 50km]]></name>
    <extensions>
      <line xmlns="http://www.topografix.com/GPX/gpx_style/0/2">
        <color>0000FF</color>
        <width>4</width>
      </line>
    </extensions>
    <trkseg>
      <trkpt lat="44.71238" lon="3.23457">
        <ele>1092.3</ele>
      </trkpt>
      <trkpt lat="44.71236" lon="3.23318">
        <ele>1091.1</ele>
      </trkpt>
      <trkpt lat="44.7127" lon="3.23194">
        <ele>1093.3</ele>
      </trkpt>
      <trkpt lat="44.71286" lon="3.22956">
        <ele>1086.4</ele>
      </trkpt>
      <trkpt lat="44.71399" lon="3.22582">
        <ele>1099.5</ele>
      </trkpt>
      <trkpt lat="44.71379" lon="3.22463">
        <ele>1102.8</ele>
      </trkpt>
      <trkpt lat="44.71298" lon="3.22225">
        <ele>1120.2</ele>
      </trkpt>
      <trkpt lat="44.71236" lon="3.21922">
        <ele>1134</ele>
      </trkpt>
      <trkpt lat="44.71185" lon="3.2179">
        <ele>1138.5</ele>
      </trkpt>
      <trkpt lat="44.71191" lon="3.21654">
        <ele>1143.1</ele>
      </trkpt>
      <trkpt lat="44.71046" lon="3.21338">
        <ele>1144.2</ele>
      </trkpt>
      <trkpt lat="44.70957" lon="3.21017">
        <ele>1140.7</ele>
      </trkpt>
      <trkpt lat="44.7092" lon="3.20669">
        <ele>1131.8</ele>
      </trkpt>
      <trkpt lat="44.70861" lon="3.20549">
        <ele>1129.3</ele>
      </trkpt>
      <trkpt lat="44.70852" lon="3.20405">
        <ele>1128.5</ele>
      </trkpt>
      <trkpt lat="44.70738" lon="3.20281">
        <ele>1134.9</ele>
      </trkpt>
      <trkpt lat="44.7073" lon="3.20168">
        <ele>1139.9</ele>
      </trkpt>
      <trkpt lat="44.70653" lon="3.19904">
        <ele>1159.4</ele>
      </trkpt>
      <trkpt lat="44.70698" lon="3.19596">
        <ele>1171.6</ele>
      </trkpt>
      <trkpt lat="44.70673" lon="3.19328">
        <ele>1175.9</ele>
      </trkpt>
      <trkpt lat="44.70704" lon="3.18899">
        <ele>1174.7</ele>
      </trkpt>
      <trkpt lat="44.70651" lon="3.18795">
        <ele>1177.9</ele>
      </trkpt>
      <trkpt lat="44.70599" lon="3.18641">
        <ele>1175.2</ele>
      </trkpt>
      <trkpt lat="44.70496" lon="3.18365">
        <ele>1167.5</ele>
      </trkpt>
      <trkpt lat="44.70418" lon="3.18149">
        <ele>1164.6</ele>
      </trkpt>
      <trkpt lat="44.70406" lon="3.17946">
        <ele>1156.7</ele>
      </trkpt>
      <trkpt lat="44.70383" lon="3.17896">
        <ele>1155.3</ele>
      </trkpt>
      <trkpt lat="44.70297" lon="3.17693">
        <ele>1161.7</ele>
      </trkpt>
      <trkpt lat="44.70233" lon="3.17528">
        <ele>1167.7</ele>
      </trkpt>
      <trkpt lat="44.70231" lon="3.17399">
        <ele>1164.2</ele>
      </trkpt>
      <trkpt lat="44.70249" lon="3.17286">
        <ele>1158.8</ele>
      </trkpt>
      <trkpt lat="44.703" lon="3.17148">
        <ele>1158.9</ele>
      </trkpt>
      <trkpt lat="44.70341" lon="3.16978">
        <ele>1160.1</ele>
      </trkpt>
      <trkpt lat="44.70347" lon="3.16822">
        <ele>1156.1</ele>
      </trkpt>
      <trkpt lat="44.70308" lon="3.16709">
        <ele>1155.5</ele>
      </trkpt>
      <trkpt lat="44.70248" lon="3.16649">
        <ele>1155.7</ele>
      </trkpt>
      <trkpt lat="44.70241" lon="3.16585">
        <ele>1154.3</ele>
      </trkpt>
      <trkpt lat="44.7019" lon="3.16516">
        <ele>1156.8</ele>
      </trkpt>
      <trkpt lat="44.70148" lon="3.16389">
        <ele>1160.3</ele>
      </trkpt>
      <trkpt lat="44.7005" lon="3.16217">
        <ele>1165.3</ele>
      </trkpt>
      <trkpt lat="44.69965" lon="3.16118">
        <ele>1164.5</ele>
      </trkpt>
      <trkpt lat="44.69824" lon="3.1604">
        <ele>1166.2</ele>
      </trkpt>
      <trkpt lat="44.69738" lon="3.1604">
        <ele>1169.3</ele>
      </trkpt>
      <trkpt lat="44.69664" lon="3.15975">
        <ele>1168.3</ele>
      </trkpt>
      <trkpt lat="44.69605" lon="3.15863">
        <ele>1165.9</ele>
      </trkpt>
      <trkpt lat="44.69556" lon="3.15831">
        <ele>1165.2</ele>
      </trkpt>
      <trkpt lat="44.69394" lon="3.15656">
        <ele>1162.3</ele>
      </trkpt>
      <trkpt lat="44.69334" lon="3.15621">
        <ele>1163.5</ele>
      </trkpt>
      <trkpt lat="44.69303" lon="3.15532">
        <ele>1165.3</ele>
      </trkpt>
      <trkpt lat="44.69203" lon="3.15433">
        <ele>1172.4</ele>
      </trkpt>
      <trkpt lat="44.6894" lon="3.15398">
        <ele>1177.5</ele>
      </trkpt>
      <trkpt lat="44.68891" lon="3.15279">
        <ele>1179.9</ele>
      </trkpt>
      <trkpt lat="44.68902" lon="3.15233">
        <ele>1178.5</ele>
      </trkpt>
      <trkpt lat="44.68873" lon="3.15189">
        <ele>1179.2</ele>
      </trkpt>
      <trkpt lat="44.68761" lon="3.15026">
        <ele>1188.4</ele>
      </trkpt>
      <trkpt lat="44.68763" lon="3.14938">
        <ele>1190.5</ele>
      </trkpt>
      <trkpt lat="44.68755" lon="3.14862">
        <ele>1194.3</ele>
      </trkpt>
      <trkpt lat="44.68747" lon="3.14764">
        <ele>1196</ele>
      </trkpt>
      <trkpt lat="44.68616" lon="3.1455">
        <ele>1190</ele>
        <time>2021-04-26T12:32:23+02:00</time>
      </trkpt>
      <trkpt lat="44.68629" lon="3.14521">
        <ele>1189</ele>
        <time>2021-04-26T12:32:28+02:00</time>
      </trkpt>
      <trkpt lat="44.68632" lon="3.14405">
        <ele>1185</ele>
        <time>2021-04-26T12:32:33+02:00</time>
      </trkpt>
      <trkpt lat="44.68636" lon="3.14328">
        <ele>1183</ele>
        <time>2021-04-26T12:32:38+02:00</time>
      </trkpt>
      <trkpt lat="44.68632" lon="3.14287">
        <ele>1182</ele>
        <time>2021-04-26T12:32:43+02:00</time>
      </trkpt>
      <trkpt lat="44.68619" lon="3.14205">
        <ele>1183</ele>
        <time>2021-04-26T12:32:48+02:00</time>
      </trkpt>
      <trkpt lat="44.68609" lon="3.14176">
        <ele>1186</ele>
        <time>2021-04-26T12:32:53+02:00</time>
      </trkpt>
      <trkpt lat="44.6856" lon="3.14139">
        <ele>1191</ele>
        <time>2021-04-26T12:32:58+02:00</time>
      </trkpt>
      <trkpt lat="44.6853" lon="3.14106">
        <ele>1194</ele>
        <time>2021-04-26T12:33:03+02:00</time>
      </trkpt>
      <trkpt lat="44.6849" lon="3.14071">
        <ele>1195</ele>
        <time>2021-04-26T12:33:08+02:00</time>
      </trkpt>
      <trkpt lat="44.68455" lon="3.14034">
        <ele>1195</ele>
        <time>2021-04-26T12:33:13+02:00</time>
      </trkpt>
      <trkpt lat="44.68422" lon="3.1394">
        <ele>1203</ele>
        <time>2021-04-26T12:33:18+02:00</time>
      </trkpt>
      <trkpt lat="44.68416" lon="3.13894">
        <ele>1206</ele>
        <time>2021-04-26T12:33:23+02:00</time>
      </trkpt>
      <trkpt lat="44.68431" lon="3.13863">
        <ele>1211</ele>
        <time>2021-04-26T12:33:28+02:00</time>
      </trkpt>
      <trkpt lat="44.6844" lon="3.13824">
        <ele>1214</ele>
        <time>2021-04-26T12:33:33+02:00</time>
      </trkpt>
      <trkpt lat="44.68439" lon="3.13783">
        <ele>1216</ele>
        <time>2021-04-26T12:33:38+02:00</time>
      </trkpt>
      <trkpt lat="44.68424" lon="3.1373">
        <ele>1218</ele>
        <time>2021-04-26T12:33:43+02:00</time>
      </trkpt>
      <trkpt lat="44.68398" lon="3.13657">
        <ele>1223</ele>
        <time>2021-04-26T12:33:48+02:00</time>
      </trkpt>
      <trkpt lat="44.6839" lon="3.13604">
        <ele>1223</ele>
        <time>2021-04-26T12:33:53+02:00</time>
      </trkpt>
      <trkpt lat="44.68384" lon="3.13534">
        <ele>1220</ele>
        <time>2021-04-26T12:33:58+02:00</time>
      </trkpt>
      <trkpt lat="44.68389" lon="3.13373">
        <ele>1210</ele>
        <time>2021-04-26T12:34:03+02:00</time>
      </trkpt>
      <trkpt lat="44.6838" lon="3.1332">
        <ele>1207</ele>
        <time>2021-04-26T12:34:08+02:00</time>
      </trkpt>
      <trkpt lat="44.6838" lon="3.1328">
        <ele>1204</ele>
        <time>2021-04-26T12:34:13+02:00</time>
      </trkpt>
      <trkpt lat="44.68378" lon="3.13225">
        <ele>1201</ele>
        <time>2021-04-26T12:34:18+02:00</time>
      </trkpt>
      <trkpt lat="44.68354" lon="3.13195">
        <ele>1199</ele>
        <time>2021-04-26T12:34:23+02:00</time>
      </trkpt>
      <trkpt lat="44.68326" lon="3.13123">
        <ele>1198</ele>
        <time>2021-04-26T12:34:28+02:00</time>
      </trkpt>
      <trkpt lat="44.68329" lon="3.13073">
        <ele>1200</ele>
        <time>2021-04-26T12:34:33+02:00</time>
      </trkpt>
      <trkpt lat="44.68337" lon="3.13047">
        <ele>1202</ele>
        <time>2021-04-26T12:34:38+02:00</time>
      </trkpt>
      <trkpt lat="44.6833" lon="3.1302">
        <ele>1204</ele>
        <time>2021-04-26T12:34:43+02:00</time>
      </trkpt>
      <trkpt lat="44.68328" lon="3.12993">
        <ele>1207</ele>
        <time>2021-04-26T12:34:48+02:00</time>
      </trkpt>
      <trkpt lat="44.68338" lon="3.12924">
        <ele>1213</ele>
        <time>2021-04-26T12:34:53+02:00</time>
      </trkpt>
      <trkpt lat="44.68336" lon="3.12893">
        <ele>1217</ele>
        <time>2021-04-26T12:34:58+02:00</time>
      </trkpt>
      <trkpt lat="44.68321" lon="3.12842">
        <ele>1223</ele>
        <time>2021-04-26T12:35:03+02:00</time>
      </trkpt>
      <trkpt lat="44.68286" lon="3.12777">
        <ele>1232</ele>
        <time>2021-04-26T12:35:08+02:00</time>
      </trkpt>
      <trkpt lat="44.68273" lon="3.12728">
        <ele>1237</ele>
        <time>2021-04-26T12:35:13+02:00</time>
      </trkpt>
      <trkpt lat="44.6827" lon="3.12701">
        <ele>1239</ele>
        <time>2021-04-26T12:35:18+02:00</time>
      </trkpt>
      <trkpt lat="44.6825" lon="3.12652">
        <ele>1242</ele>
        <time>2021-04-26T12:35:23+02:00</time>
      </trkpt>
      <trkpt lat="44.68246" lon="3.12626">
        <ele>1244</ele>
        <time>2021-04-26T12:35:28+02:00</time>
      </trkpt>
      <trkpt lat="44.68239" lon="3.12566">
        <ele>1249</ele>
        <time>2021-04-26T12:35:33+02:00</time>
      </trkpt>
      <trkpt lat="44.68239" lon="3.12518">
        <ele>1253</ele>
        <time>2021-04-26T12:35:38+02:00</time>
      </trkpt>
      <trkpt lat="44.68232" lon="3.12479">
        <ele>1255</ele>
        <time>2021-04-26T12:35:43+02:00</time>
      </trkpt>
      <trkpt lat="44.68201" lon="3.12405">
        <ele>1258</ele>
        <time>2021-04-26T12:35:48+02:00</time>
      </trkpt>
      <trkpt lat="44.68185" lon="3.12375">
        <ele>1259</ele>
        <time>2021-04-26T12:35:53+02:00</time>
      </trkpt>
      <trkpt lat="44.68165" lon="3.12358">
        <ele>1258</ele>
        <time>2021-04-26T12:35:58+02:00</time>
      </trkpt>
      <trkpt lat="44.68167" lon="3.12364">
        <ele>1259</ele>
        <time>2021-04-26T12:36:03+02:00</time>
      </trkpt>
      <trkpt lat="44.68138" lon="3.12362">
        <ele>1258</ele>
        <time>2021-04-26T12:36:08+02:00</time>
      </trkpt>
      <trkpt lat="44.68107" lon="3.12344">
        <ele>1256</ele>
        <time>2021-04-26T12:36:13+02:00</time>
      </trkpt>
      <trkpt lat="44.68058" lon="3.1229">
        <ele>1252</ele>
        <time>2021-04-26T12:36:18+02:00</time>
      </trkpt>
      <trkpt lat="44.68039" lon="3.12263">
        <ele>1250</ele>
        <time>2021-04-26T12:36:23+02:00</time>
      </trkpt>
      <trkpt lat="44.68017" lon="3.1222">
        <ele>1248</ele>
        <time>2021-04-26T12:36:28+02:00</time>
      </trkpt>
      <trkpt lat="44.67996" lon="3.1219">
        <ele>1246</ele>
        <time>2021-04-26T12:36:33+02:00</time>
      </trkpt>
      <trkpt lat="44.6799" lon="3.12172">
        <ele>1245</ele>
        <time>2021-04-26T12:36:38+02:00</time>
      </trkpt>
      <trkpt lat="44.67987" lon="3.12086">
        <ele>1239</ele>
        <time>2021-04-26T12:36:43+02:00</time>
      </trkpt>
      <trkpt lat="44.68003" lon="3.12052">
        <ele>1237</ele>
        <time>2021-04-26T12:36:48+02:00</time>
      </trkpt>
      <trkpt lat="44.68035" lon="3.12021">
        <ele>1236</ele>
        <time>2021-04-26T12:36:53+02:00</time>
      </trkpt>
      <trkpt lat="44.68043" lon="3.11991">
        <ele>1235</ele>
        <time>2021-04-26T12:36:58+02:00</time>
      </trkpt>
      <trkpt lat="44.68029" lon="3.11963">
        <ele>1234</ele>
        <time>2021-04-26T12:37:03+02:00</time>
      </trkpt>
      <trkpt lat="44.68007" lon="3.11931">
        <ele>1233</ele>
        <time>2021-04-26T12:37:08+02:00</time>
      </trkpt>
      <trkpt lat="44.6796" lon="3.11895">
        <ele>1229</ele>
        <time>2021-04-26T12:37:13+02:00</time>
      </trkpt>
      <trkpt lat="44.67899" lon="3.11834">
        <ele>1222</ele>
        <time>2021-04-26T12:37:18+02:00</time>
      </trkpt>
      <trkpt lat="44.6788" lon="3.11818">
        <ele>1220</ele>
        <time>2021-04-26T12:37:23+02:00</time>
      </trkpt>
      <trkpt lat="44.6786" lon="3.11784">
        <ele>1218</ele>
        <time>2021-04-26T12:37:28+02:00</time>
      </trkpt>
      <trkpt lat="44.67831" lon="3.11696">
        <ele>1211</ele>
        <time>2021-04-26T12:37:33+02:00</time>
      </trkpt>
      <trkpt lat="44.67829" lon="3.11665">
        <ele>1209</ele>
        <time>2021-04-26T12:37:38+02:00</time>
      </trkpt>
      <trkpt lat="44.67837" lon="3.1164">
        <ele>1208</ele>
        <time>2021-04-26T12:37:43+02:00</time>
      </trkpt>
      <trkpt lat="44.67849" lon="3.11543">
        <ele>1202</ele>
        <time>2021-04-26T12:37:48+02:00</time>
      </trkpt>
      <trkpt lat="44.6782" lon="3.11395">
        <ele>1194</ele>
        <time>2021-04-26T12:37:53+02:00</time>
      </trkpt>
      <trkpt lat="44.67797" lon="3.11318">
        <ele>1191</ele>
        <time>2021-04-26T12:37:58+02:00</time>
      </trkpt>
      <trkpt lat="44.67771" lon="3.11111">
        <ele>1186</ele>
        <time>2021-04-26T12:38:03+02:00</time>
      </trkpt>
      <trkpt lat="44.67728" lon="3.11011">
        <ele>1183</ele>
        <time>2021-04-26T12:38:08+02:00</time>
      </trkpt>
      <trkpt lat="44.67603" lon="3.10957">
        <ele>1185</ele>
        <time>2021-04-26T12:38:13+02:00</time>
      </trkpt>
      <trkpt lat="44.67563" lon="3.10953">
        <ele>1189</ele>
        <time>2021-04-26T12:38:18+02:00</time>
      </trkpt>
      <trkpt lat="44.67517" lon="3.10941">
        <ele>1192</ele>
        <time>2021-04-26T12:38:23+02:00</time>
      </trkpt>
      <trkpt lat="44.67346" lon="3.10801">
        <ele>1194</ele>
        <time>2021-04-26T12:38:28+02:00</time>
      </trkpt>
      <trkpt lat="44.67136" lon="3.1061">
        <ele>1197</ele>
        <time>2021-04-26T12:38:33+02:00</time>
      </trkpt>
      <trkpt lat="44.67081" lon="3.10528">
        <ele>1197</ele>
        <time>2021-04-26T12:38:38+02:00</time>
      </trkpt>
      <trkpt lat="44.67005" lon="3.10445">
        <ele>1197</ele>
        <time>2021-04-26T12:38:43+02:00</time>
      </trkpt>
      <trkpt lat="44.66908" lon="3.10414">
        <ele>1189</ele>
        <time>2021-04-26T12:38:48+02:00</time>
      </trkpt>
      <trkpt lat="44.66877" lon="3.10399">
        <ele>1188</ele>
        <time>2021-04-26T12:38:53+02:00</time>
      </trkpt>
      <trkpt lat="44.66865" lon="3.10372">
        <ele>1187</ele>
        <time>2021-04-26T12:38:58+02:00</time>
      </trkpt>
      <trkpt lat="44.66865" lon="3.10382">
        <ele>1187</ele>
        <time>2021-04-26T12:39:03+02:00</time>
      </trkpt>
      <trkpt lat="44.66869" lon="3.10369">
        <ele>1187</ele>
        <time>2021-04-26T12:39:08+02:00</time>
      </trkpt>
      <trkpt lat="44.66853" lon="3.1025">
        <ele>1186</ele>
        <time>2021-04-26T12:39:13+02:00</time>
      </trkpt>
      <trkpt lat="44.66852" lon="3.10199">
        <ele>1186</ele>
        <time>2021-04-26T12:39:18+02:00</time>
      </trkpt>
      <trkpt lat="44.66841" lon="3.10122">
        <ele>1183</ele>
        <time>2021-04-26T12:39:23+02:00</time>
      </trkpt>
      <trkpt lat="44.66807" lon="3.10076">
        <ele>1178</ele>
        <time>2021-04-26T12:39:28+02:00</time>
      </trkpt>
      <trkpt lat="44.66751" lon="3.10053">
        <ele>1171</ele>
        <time>2021-04-26T12:39:33+02:00</time>
      </trkpt>
      <trkpt lat="44.66702" lon="3.10055">
        <ele>1168</ele>
        <time>2021-04-26T12:39:38+02:00</time>
      </trkpt>
      <trkpt lat="44.66654" lon="3.10046">
        <ele>1166</ele>
        <time>2021-04-26T12:39:43+02:00</time>
      </trkpt>
      <trkpt lat="44.66597" lon="3.10014">
        <ele>1162</ele>
        <time>2021-04-26T12:39:48+02:00</time>
      </trkpt>
      <trkpt lat="44.66472" lon="3.09909">
        <ele>1158</ele>
        <time>2021-04-26T12:39:53+02:00</time>
      </trkpt>
      <trkpt lat="44.6642" lon="3.09853">
        <ele>1158</ele>
        <time>2021-04-26T12:39:58+02:00</time>
      </trkpt>
      <trkpt lat="44.66354" lon="3.09765">
        <ele>1156</ele>
        <time>2021-04-26T12:40:03+02:00</time>
      </trkpt>
      <trkpt lat="44.66329" lon="3.0971">
        <ele>1156</ele>
        <time>2021-04-26T12:40:08+02:00</time>
      </trkpt>
      <trkpt lat="44.66299" lon="3.09663">
        <ele>1156</ele>
        <time>2021-04-26T12:40:13+02:00</time>
      </trkpt>
      <trkpt lat="44.66249" lon="3.09589">
        <ele>1156</ele>
        <time>2021-04-26T12:40:18+02:00</time>
      </trkpt>
      <trkpt lat="44.66196" lon="3.09523">
        <ele>1158</ele>
        <time>2021-04-26T12:40:23+02:00</time>
      </trkpt>
      <trkpt lat="44.6614" lon="3.09457">
        <ele>1158</ele>
        <time>2021-04-26T12:40:28+02:00</time>
      </trkpt>
      <trkpt lat="44.6604" lon="3.09366">
        <ele>1158</ele>
        <time>2021-04-26T12:40:33+02:00</time>
      </trkpt>
      <trkpt lat="44.65792" lon="3.09191">
        <ele>1158</ele>
        <time>2021-04-26T12:40:38+02:00</time>
      </trkpt>
      <trkpt lat="44.65708" lon="3.09141">
        <ele>1159</ele>
        <time>2021-04-26T12:40:43+02:00</time>
      </trkpt>
      <trkpt lat="44.65671" lon="3.09111">
        <ele>1158</ele>
        <time>2021-04-26T12:40:48+02:00</time>
      </trkpt>
      <trkpt lat="44.65611" lon="3.09074">
        <ele>1158</ele>
        <time>2021-04-26T12:40:53+02:00</time>
      </trkpt>
      <trkpt lat="44.65586" lon="3.09071">
        <ele>1159</ele>
        <time>2021-04-26T12:40:58+02:00</time>
      </trkpt>
      <trkpt lat="44.6555" lon="3.09062">
        <ele>1158</ele>
        <time>2021-04-26T12:41:03+02:00</time>
      </trkpt>
      <trkpt lat="44.65517" lon="3.0904">
        <ele>1157</ele>
        <time>2021-04-26T12:41:08+02:00</time>
      </trkpt>
      <trkpt lat="44.65506" lon="3.09012">
        <ele>1157</ele>
        <time>2021-04-26T12:41:13+02:00</time>
      </trkpt>
      <trkpt lat="44.65514" lon="3.08961">
        <ele>1158</ele>
        <time>2021-04-26T12:41:18+02:00</time>
      </trkpt>
      <trkpt lat="44.65507" lon="3.08902">
        <ele>1159</ele>
        <time>2021-04-26T12:41:23+02:00</time>
      </trkpt>
      <trkpt lat="44.65489" lon="3.0886">
        <ele>1159</ele>
        <time>2021-04-26T12:41:28+02:00</time>
      </trkpt>
      <trkpt lat="44.65482" lon="3.08831">
        <ele>1160</ele>
        <time>2021-04-26T12:41:33+02:00</time>
      </trkpt>
      <trkpt lat="44.65503" lon="3.08801">
        <ele>1160</ele>
        <time>2021-04-26T12:41:38+02:00</time>
      </trkpt>
      <trkpt lat="44.65519" lon="3.08774">
        <ele>1162</ele>
        <time>2021-04-26T12:41:43+02:00</time>
      </trkpt>
      <trkpt lat="44.65522" lon="3.08747">
        <ele>1162</ele>
        <time>2021-04-26T12:41:48+02:00</time>
      </trkpt>
      <trkpt lat="44.65536" lon="3.08718">
        <ele>1164</ele>
        <time>2021-04-26T12:41:53+02:00</time>
      </trkpt>
      <trkpt lat="44.65565" lon="3.08633">
        <ele>1168</ele>
        <time>2021-04-26T12:41:58+02:00</time>
      </trkpt>
      <trkpt lat="44.65565" lon="3.08626">
        <ele>1168</ele>
        <time>2021-04-26T12:42:03+02:00</time>
      </trkpt>
      <trkpt lat="44.65587" lon="3.08555">
        <ele>1171</ele>
        <time>2021-04-26T12:42:08+02:00</time>
      </trkpt>
      <trkpt lat="44.65599" lon="3.08496">
        <ele>1172</ele>
        <time>2021-04-26T12:42:13+02:00</time>
      </trkpt>
      <trkpt lat="44.65639" lon="3.08213">
        <ele>1179</ele>
        <time>2021-04-26T12:42:18+02:00</time>
      </trkpt>
      <trkpt lat="44.65649" lon="3.08132">
        <ele>1182</ele>
        <time>2021-04-26T12:42:23+02:00</time>
      </trkpt>
      <trkpt lat="44.65663" lon="3.08082">
        <ele>1184</ele>
        <time>2021-04-26T12:42:28+02:00</time>
      </trkpt>
      <trkpt lat="44.65676" lon="3.08012">
        <ele>1186</ele>
        <time>2021-04-26T12:42:33+02:00</time>
      </trkpt>
      <trkpt lat="44.65673" lon="3.07946">
        <ele>1186</ele>
        <time>2021-04-26T12:42:38+02:00</time>
      </trkpt>
      <trkpt lat="44.65658" lon="3.07893">
        <ele>1186</ele>
        <time>2021-04-26T12:42:43+02:00</time>
      </trkpt>
      <trkpt lat="44.65653" lon="3.07838">
        <ele>1186</ele>
        <time>2021-04-26T12:42:48+02:00</time>
      </trkpt>
      <trkpt lat="44.65653" lon="3.07773">
        <ele>1188</ele>
        <time>2021-04-26T12:42:53+02:00</time>
      </trkpt>
      <trkpt lat="44.65661" lon="3.07696">
        <ele>1191</ele>
        <time>2021-04-26T12:42:58+02:00</time>
      </trkpt>
      <trkpt lat="44.65691" lon="3.07599">
        <ele>1193</ele>
        <time>2021-04-26T12:43:03+02:00</time>
      </trkpt>
      <trkpt lat="44.6571" lon="3.07559">
        <ele>1195</ele>
        <time>2021-04-26T12:43:08+02:00</time>
      </trkpt>
      <trkpt lat="44.65731" lon="3.07524">
        <ele>1198</ele>
        <time>2021-04-26T12:43:13+02:00</time>
      </trkpt>
      <trkpt lat="44.65751" lon="3.07466">
        <ele>1203</ele>
        <time>2021-04-26T12:43:18+02:00</time>
      </trkpt>
      <trkpt lat="44.65762" lon="3.07407">
        <ele>1208</ele>
        <time>2021-04-26T12:43:23+02:00</time>
      </trkpt>
      <trkpt lat="44.65766" lon="3.07369">
        <ele>1210</ele>
        <time>2021-04-26T12:43:28+02:00</time>
      </trkpt>
      <trkpt lat="44.65787" lon="3.07285">
        <ele>1215</ele>
        <time>2021-04-26T12:43:33+02:00</time>
      </trkpt>
      <trkpt lat="44.65785" lon="3.07251">
        <ele>1215</ele>
        <time>2021-04-26T12:43:38+02:00</time>
      </trkpt>
      <trkpt lat="44.65774" lon="3.07215">
        <ele>1216</ele>
        <time>2021-04-26T12:43:43+02:00</time>
      </trkpt>
      <trkpt lat="44.65746" lon="3.07137">
        <ele>1215</ele>
        <time>2021-04-26T12:43:48+02:00</time>
      </trkpt>
      <trkpt lat="44.65729" lon="3.07063">
        <ele>1213</ele>
        <time>2021-04-26T12:43:53+02:00</time>
      </trkpt>
      <trkpt lat="44.65731" lon="3.07021">
        <ele>1212</ele>
        <time>2021-04-26T12:43:58+02:00</time>
      </trkpt>
      <trkpt lat="44.6576" lon="3.06905">
        <ele>1210</ele>
        <time>2021-04-26T12:44:03+02:00</time>
      </trkpt>
      <trkpt lat="44.65771" lon="3.06829">
        <ele>1210</ele>
        <time>2021-04-26T12:44:08+02:00</time>
      </trkpt>
      <trkpt lat="44.65804" lon="3.06764">
        <ele>1204</ele>
        <time>2021-04-26T12:44:13+02:00</time>
      </trkpt>
      <trkpt lat="44.65829" lon="3.06736">
        <ele>1200</ele>
        <time>2021-04-26T12:44:18+02:00</time>
      </trkpt>
      <trkpt lat="44.65873" lon="3.06705">
        <ele>1195</ele>
        <time>2021-04-26T12:44:23+02:00</time>
      </trkpt>
      <trkpt lat="44.65897" lon="3.0666">
        <ele>1192</ele>
        <time>2021-04-26T12:44:28+02:00</time>
      </trkpt>
      <trkpt lat="44.65894" lon="3.06633">
        <ele>1193</ele>
        <time>2021-04-26T12:44:33+02:00</time>
      </trkpt>
      <trkpt lat="44.65903" lon="3.06564">
        <ele>1194</ele>
        <time>2021-04-26T12:44:38+02:00</time>
      </trkpt>
      <trkpt lat="44.65904" lon="3.06503">
        <ele>1196</ele>
        <time>2021-04-26T12:44:43+02:00</time>
      </trkpt>
      <trkpt lat="44.65889" lon="3.0632">
        <ele>1202</ele>
        <time>2021-04-26T12:44:48+02:00</time>
      </trkpt>
      <trkpt lat="44.65875" lon="3.06267">
        <ele>1204</ele>
        <time>2021-04-26T12:44:53+02:00</time>
      </trkpt>
      <trkpt lat="44.65854" lon="3.06211">
        <ele>1208</ele>
        <time>2021-04-26T12:44:58+02:00</time>
      </trkpt>
      <trkpt lat="44.65844" lon="3.06163">
        <ele>1211</ele>
        <time>2021-04-26T12:45:03+02:00</time>
      </trkpt>
      <trkpt lat="44.65826" lon="3.06109">
        <ele>1213</ele>
        <time>2021-04-26T12:45:08+02:00</time>
      </trkpt>
      <trkpt lat="44.65791" lon="3.06033">
        <ele>1217</ele>
        <time>2021-04-26T12:45:13+02:00</time>
      </trkpt>
      <trkpt lat="44.65771" lon="3.0598">
        <ele>1217</ele>
        <time>2021-04-26T12:45:18+02:00</time>
      </trkpt>
      <trkpt lat="44.65737" lon="3.05869">
        <ele>1219</ele>
        <time>2021-04-26T12:45:23+02:00</time>
      </trkpt>
      <trkpt lat="44.65737" lon="3.05814">
        <ele>1220</ele>
        <time>2021-04-26T12:45:28+02:00</time>
      </trkpt>
      <trkpt lat="44.65742" lon="3.05788">
        <ele>1221</ele>
        <time>2021-04-26T12:45:33+02:00</time>
      </trkpt>
      <trkpt lat="44.65614" lon="3.05738">
        <ele>1210</ele>
        <time>2021-04-26T12:45:38+02:00</time>
      </trkpt>
      <trkpt lat="44.65534" lon="3.0573">
        <ele>1209</ele>
        <time>2021-04-26T12:45:43+02:00</time>
      </trkpt>
      <trkpt lat="44.65448" lon="3.05661">
        <ele>1208</ele>
        <time>2021-04-26T12:45:48+02:00</time>
      </trkpt>
      <trkpt lat="44.65223" lon="3.05774">
        <ele>1208</ele>
        <time>2021-04-26T12:45:53+02:00</time>
      </trkpt>
      <trkpt lat="44.65206" lon="3.05794">
        <ele>1208</ele>
        <time>2021-04-26T12:45:58+02:00</time>
      </trkpt>
      <trkpt lat="44.65129" lon="3.05818">
        <ele>1209</ele>
        <time>2021-04-26T12:46:03+02:00</time>
      </trkpt>
      <trkpt lat="44.65121" lon="3.05874">
        <ele>1212</ele>
        <time>2021-04-26T12:46:08+02:00</time>
      </trkpt>
      <trkpt lat="44.65052" lon="3.05886">
        <ele>1215</ele>
        <time>2021-04-26T12:46:13+02:00</time>
      </trkpt>
      <trkpt lat="44.65015" lon="3.05806">
        <ele>1211</ele>
        <time>2021-04-26T12:46:18+02:00</time>
      </trkpt>
      <trkpt lat="44.64956" lon="3.05786">
        <ele>1211</ele>
        <time>2021-04-26T12:46:23+02:00</time>
      </trkpt>
      <trkpt lat="44.64887" lon="3.05806">
        <ele>1214</ele>
        <time>2021-04-26T12:46:28+02:00</time>
      </trkpt>
      <trkpt lat="44.64924" lon="3.05922">
        <ele>1219</ele>
        <time>2021-04-26T12:46:33+02:00</time>
      </trkpt>
      <trkpt lat="44.64947" lon="3.0601">
        <ele>1222</ele>
        <time>2021-04-26T12:46:38+02:00</time>
      </trkpt>
      <trkpt lat="44.64884" lon="3.0619">
        <ele>1219</ele>
        <time>2021-04-26T12:46:43+02:00</time>
      </trkpt>
      <trkpt lat="44.64805" lon="3.06522">
        <ele>1219</ele>
        <time>2021-04-26T12:46:48+02:00</time>
      </trkpt>
      <trkpt lat="44.64349" lon="3.0643">
        <ele>1214</ele>
        <time>2021-04-26T12:46:53+02:00</time>
      </trkpt>
      <trkpt lat="44.64075" lon="3.06486">
        <ele>1218</ele>
        <time>2021-04-26T12:46:58+02:00</time>
      </trkpt>
      <trkpt lat="44.6387" lon="3.06366">
        <ele>1217</ele>
        <time>2021-04-26T12:47:03+02:00</time>
      </trkpt>
      <trkpt lat="44.63819" lon="3.06294">
        <ele>1217</ele>
        <time>2021-04-26T12:47:08+02:00</time>
      </trkpt>
      <trkpt lat="44.63528" lon="3.06138">
        <ele>1225</ele>
        <time>2021-04-26T12:47:13+02:00</time>
      </trkpt>
      <trkpt lat="44.63332" lon="3.05998">
        <ele>1227</ele>
        <time>2021-04-26T12:47:18+02:00</time>
      </trkpt>
      <trkpt lat="44.63164" lon="3.0587">
        <ele>1232</ele>
        <time>2021-04-26T12:47:23+02:00</time>
      </trkpt>
      <trkpt lat="44.62998" lon="3.05822">
        <ele>1234</ele>
        <time>2021-04-26T12:47:28+02:00</time>
      </trkpt>
      <trkpt lat="44.62907" lon="3.05794">
        <ele>1240</ele>
        <time>2021-04-26T12:47:33+02:00</time>
      </trkpt>
      <trkpt lat="44.62682" lon="3.05665">
        <ele>1240</ele>
        <time>2021-04-26T12:47:38+02:00</time>
      </trkpt>
      <trkpt lat="44.62471" lon="3.05561">
        <ele>1244</ele>
        <time>2021-04-26T12:47:43+02:00</time>
      </trkpt>
      <trkpt lat="44.62331" lon="3.05437">
        <ele>1255</ele>
        <time>2021-04-26T12:47:48+02:00</time>
      </trkpt>
      <trkpt lat="44.622" lon="3.05189">
        <ele>1254</ele>
        <time>2021-04-26T12:47:53+02:00</time>
      </trkpt>
      <trkpt lat="44.61918" lon="3.05065">
        <ele>1248</ele>
        <time>2021-04-26T12:47:58+02:00</time>
      </trkpt>
      <trkpt lat="44.61696" lon="3.04993">
        <ele>1251</ele>
        <time>2021-04-26T12:48:03+02:00</time>
      </trkpt>
      <trkpt lat="44.61613" lon="3.05093">
        <ele>1260</ele>
        <time>2021-04-26T12:48:08+02:00</time>
      </trkpt>
      <trkpt lat="44.61622" lon="3.05209">
        <ele>1258</ele>
        <time>2021-04-26T12:48:13+02:00</time>
      </trkpt>
      <trkpt lat="44.61573" lon="3.05245">
        <ele>1262</ele>
        <time>2021-04-26T12:48:18+02:00</time>
      </trkpt>
      <trkpt lat="44.61414" lon="3.05193">
        <ele>1270</ele>
        <time>2021-04-26T12:48:23+02:00</time>
      </trkpt>
      <trkpt lat="44.61314" lon="3.05133">
        <ele>1272</ele>
        <time>2021-04-26T12:48:28+02:00</time>
      </trkpt>
      <trkpt lat="44.61206" lon="3.05053">
        <ele>1276</ele>
        <time>2021-04-26T12:48:33+02:00</time>
      </trkpt>
      <trkpt lat="44.61112" lon="3.05049">
        <ele>1282</ele>
        <time>2021-04-26T12:48:38+02:00</time>
      </trkpt>
      <trkpt lat="44.61057" lon="3.04929">
        <ele>1288</ele>
        <time>2021-04-26T12:48:43+02:00</time>
      </trkpt>
      <trkpt lat="44.60898" lon="3.04692">
        <ele>1298</ele>
        <time>2021-04-26T12:48:48+02:00</time>
      </trkpt>
      <trkpt lat="44.60895" lon="3.04584">
        <ele>1297</ele>
        <time>2021-04-26T12:48:53+02:00</time>
      </trkpt>
      <trkpt lat="44.60884" lon="3.04344">
        <ele>1299</ele>
        <time>2021-04-26T12:48:58+02:00</time>
      </trkpt>
      <trkpt lat="44.60849" lon="3.04248">
        <ele>1302</ele>
        <time>2021-04-26T12:49:03+02:00</time>
      </trkpt>
      <trkpt lat="44.60872" lon="3.04104">
        <ele>1302</ele>
        <time>2021-04-26T12:49:08+02:00</time>
      </trkpt>
      <trkpt lat="44.60784" lon="3.0386">
        <ele>1310</ele>
        <time>2021-04-26T12:49:13+02:00</time>
      </trkpt>
      <trkpt lat="44.60655" lon="3.03747">
        <ele>1314</ele>
        <time>2021-04-26T12:49:18+02:00</time>
      </trkpt>
      <trkpt lat="44.60561" lon="3.03631">
        <ele>1314</ele>
        <time>2021-04-26T12:49:23+02:00</time>
      </trkpt>
      <trkpt lat="44.60473" lon="3.03511">
        <ele>1318</ele>
        <time>2021-04-26T12:49:28+02:00</time>
      </trkpt>
      <trkpt lat="44.60382" lon="3.03451">
        <ele>1320</ele>
        <time>2021-04-26T12:49:33+02:00</time>
      </trkpt>
      <trkpt lat="44.60245" lon="3.03259">
        <ele>1316</ele>
        <time>2021-04-26T12:49:38+02:00</time>
      </trkpt>
      <trkpt lat="44.60259" lon="3.03007">
        <ele>1318</ele>
        <time>2021-04-26T12:49:43+02:00</time>
      </trkpt>
      <trkpt lat="44.60165" lon="3.03007">
        <ele>1319</ele>
        <time>2021-04-26T12:49:48+02:00</time>
      </trkpt>
      <trkpt lat="44.60043" lon="3.03123">
        <ele>1321</ele>
        <time>2021-04-26T12:49:53+02:00</time>
      </trkpt>
      <trkpt lat="44.59871" lon="3.03163">
        <ele>1332</ele>
        <time>2021-04-26T12:49:58+02:00</time>
      </trkpt>
      <trkpt lat="44.59768" lon="3.03186">
        <ele>1342</ele>
        <time>2021-04-26T12:50:03+02:00</time>
      </trkpt>
      <trkpt lat="44.59768" lon="3.03186">
        <ele>1342</ele>
        <time>2021-04-26T11:39:13+02:00</time>
      </trkpt>
      <trkpt lat="44.59768" lon="3.03186">
        <ele>1342</ele>
        <time>2021-04-26T11:39:13+02:00</time>
      </trkpt>
      <trkpt lat="44.59768" lon="3.03194">
        <ele>1344</ele>
        <time>2021-04-26T11:39:18+02:00</time>
      </trkpt>
      <trkpt lat="44.59705" lon="3.03303">
        <ele>1347</ele>
        <time>2021-04-26T11:39:23+02:00</time>
      </trkpt>
      <trkpt lat="44.59667" lon="3.03377">
        <ele>1348</ele>
        <time>2021-04-26T11:39:28+02:00</time>
      </trkpt>
      <trkpt lat="44.59485" lon="3.0394">
        <ele>1331</ele>
        <time>2021-04-26T11:39:33+02:00</time>
      </trkpt>
      <trkpt lat="44.5935" lon="3.04312">
        <ele>1324</ele>
        <time>2021-04-26T11:39:38+02:00</time>
      </trkpt>
      <trkpt lat="44.59318" lon="3.0439">
        <ele>1319</ele>
        <time>2021-04-26T11:39:43+02:00</time>
      </trkpt>
      <trkpt lat="44.59196" lon="3.04695">
        <ele>1327</ele>
        <time>2021-04-26T11:39:48+02:00</time>
      </trkpt>
      <trkpt lat="44.59102" lon="3.04942">
        <ele>1342</ele>
        <time>2021-04-26T11:39:53+02:00</time>
      </trkpt>
      <trkpt lat="44.5908" lon="3.04996">
        <ele>1345</ele>
        <time>2021-04-26T11:39:58+02:00</time>
      </trkpt>
      <trkpt lat="44.59056" lon="3.05041">
        <ele>1348</ele>
        <time>2021-04-26T11:40:03+02:00</time>
      </trkpt>
      <trkpt lat="44.59015" lon="3.05095">
        <ele>1350</ele>
        <time>2021-04-26T11:40:08+02:00</time>
      </trkpt>
      <trkpt lat="44.58884" lon="3.05295">
        <ele>1359</ele>
        <time>2021-04-26T11:40:13+02:00</time>
      </trkpt>
      <trkpt lat="44.58727" lon="3.05523">
        <ele>1364</ele>
        <time>2021-04-26T11:40:18+02:00</time>
      </trkpt>
      <trkpt lat="44.58679" lon="3.05586">
        <ele>1365</ele>
        <time>2021-04-26T11:40:23+02:00</time>
      </trkpt>
      <trkpt lat="44.58639" lon="3.05622">
        <ele>1366</ele>
        <time>2021-04-26T11:40:28+02:00</time>
      </trkpt>
      <trkpt lat="44.58494" lon="3.05737">
        <ele>1370</ele>
        <time>2021-04-26T11:40:33+02:00</time>
      </trkpt>
      <trkpt lat="44.58415" lon="3.05783">
        <ele>1368</ele>
        <time>2021-04-26T11:40:38+02:00</time>
      </trkpt>
      <trkpt lat="44.58" lon="3.06083">
        <ele>1366</ele>
        <time>2021-04-26T11:40:43+02:00</time>
      </trkpt>
      <trkpt lat="44.57939" lon="3.06151">
        <ele>1368</ele>
        <time>2021-04-26T11:40:48+02:00</time>
      </trkpt>
      <trkpt lat="44.57887" lon="3.06256">
        <ele>1369</ele>
        <time>2021-04-26T11:40:53+02:00</time>
      </trkpt>
      <trkpt lat="44.57833" lon="3.0638">
        <ele>1374</ele>
        <time>2021-04-26T11:40:58+02:00</time>
      </trkpt>
      <trkpt lat="44.57739" lon="3.06484">
        <ele>1378</ele>
        <time>2021-04-26T11:41:03+02:00</time>
      </trkpt>
      <trkpt lat="44.57688" lon="3.06545">
        <ele>1382</ele>
        <time>2021-04-26T11:41:08+02:00</time>
      </trkpt>
      <trkpt lat="44.57655" lon="3.06579">
        <ele>1386</ele>
        <time>2021-04-26T11:41:13+02:00</time>
      </trkpt>
      <trkpt lat="44.57654" lon="3.06599">
        <ele>1387</ele>
        <time>2021-04-26T11:41:18+02:00</time>
      </trkpt>
      <trkpt lat="44.5768" lon="3.06727">
        <ele>1391</ele>
        <time>2021-04-26T11:41:23+02:00</time>
      </trkpt>
      <trkpt lat="44.5768" lon="3.06813">
        <ele>1394</ele>
        <time>2021-04-26T11:41:28+02:00</time>
      </trkpt>
      <trkpt lat="44.57677" lon="3.0683">
        <ele>1395</ele>
        <time>2021-04-26T11:41:33+02:00</time>
      </trkpt>
      <trkpt lat="44.5768" lon="3.06884">
        <ele>1393</ele>
        <time>2021-04-26T11:41:38+02:00</time>
      </trkpt>
      <trkpt lat="44.57679" lon="3.06951">
        <ele>1391</ele>
        <time>2021-04-26T11:41:43+02:00</time>
      </trkpt>
      <trkpt lat="44.57672" lon="3.07005">
        <ele>1391</ele>
        <time>2021-04-26T11:41:48+02:00</time>
      </trkpt>
      <trkpt lat="44.57672" lon="3.07058">
        <ele>1392</ele>
        <time>2021-04-26T11:41:53+02:00</time>
      </trkpt>
      <trkpt lat="44.57675" lon="3.0712">
        <ele>1392</ele>
        <time>2021-04-26T11:41:58+02:00</time>
      </trkpt>
      <trkpt lat="44.57672" lon="3.07187">
        <ele>1394</ele>
        <time>2021-04-26T11:42:03+02:00</time>
      </trkpt>
      <trkpt lat="44.57679" lon="3.07294">
        <ele>1397</ele>
        <time>2021-04-26T11:42:08+02:00</time>
      </trkpt>
      <trkpt lat="44.57675" lon="3.07335">
        <ele>1398</ele>
        <time>2021-04-26T11:42:13+02:00</time>
      </trkpt>
      <trkpt lat="44.5766" lon="3.07375">
        <ele>1401</ele>
        <time>2021-04-26T11:42:18+02:00</time>
      </trkpt>
      <trkpt lat="44.57659" lon="3.07384">
        <ele>1401</ele>
        <time>2021-04-26T11:42:23+02:00</time>
      </trkpt>
      <trkpt lat="44.57661" lon="3.074">
        <ele>1401</ele>
        <time>2021-04-26T11:42:28+02:00</time>
      </trkpt>
      <trkpt lat="44.57662" lon="3.07442">
        <ele>1403</ele>
        <time>2021-04-26T11:42:33+02:00</time>
      </trkpt>
      <trkpt lat="44.57674" lon="3.07475">
        <ele>1403</ele>
        <time>2021-04-26T11:42:38+02:00</time>
      </trkpt>
      <trkpt lat="44.57684" lon="3.07521">
        <ele>1403</ele>
        <time>2021-04-26T11:42:43+02:00</time>
      </trkpt>
      <trkpt lat="44.5768" lon="3.07581">
        <ele>1405</ele>
        <time>2021-04-26T11:42:48+02:00</time>
      </trkpt>
      <trkpt lat="44.57671" lon="3.07631">
        <ele>1406</ele>
        <time>2021-04-26T11:42:53+02:00</time>
      </trkpt>
      <trkpt lat="44.57677" lon="3.07679">
        <ele>1406</ele>
        <time>2021-04-26T11:42:58+02:00</time>
      </trkpt>
      <trkpt lat="44.57682" lon="3.07745">
        <ele>1406</ele>
        <time>2021-04-26T11:43:03+02:00</time>
      </trkpt>
      <trkpt lat="44.57691" lon="3.07814">
        <ele>1406</ele>
        <time>2021-04-26T11:43:08+02:00</time>
      </trkpt>
      <trkpt lat="44.57694" lon="3.07881">
        <ele>1408</ele>
        <time>2021-04-26T11:43:13+02:00</time>
      </trkpt>
      <trkpt lat="44.57708" lon="3.08018">
        <ele>1408</ele>
        <time>2021-04-26T11:43:18+02:00</time>
      </trkpt>
      <trkpt lat="44.57712" lon="3.08101">
        <ele>1407</ele>
        <time>2021-04-26T11:43:23+02:00</time>
      </trkpt>
      <trkpt lat="44.57705" lon="3.08148">
        <ele>1407</ele>
        <time>2021-04-26T11:43:28+02:00</time>
      </trkpt>
      <trkpt lat="44.57749" lon="3.08237">
        <ele>1398</ele>
        <time>2021-04-26T11:43:33+02:00</time>
      </trkpt>
      <trkpt lat="44.57775" lon="3.08304">
        <ele>1395</ele>
        <time>2021-04-26T11:43:38+02:00</time>
      </trkpt>
      <trkpt lat="44.5777" lon="3.083">
        <ele>1395</ele>
        <time>2021-04-26T11:43:43+02:00</time>
      </trkpt>
      <trkpt lat="44.57769" lon="3.08306">
        <ele>1395</ele>
        <time>2021-04-26T11:43:48+02:00</time>
      </trkpt>
      <trkpt lat="44.5777" lon="3.08325">
        <ele>1395</ele>
        <time>2021-04-26T11:43:53+02:00</time>
      </trkpt>
      <trkpt lat="44.57773" lon="3.08331">
        <ele>1395</ele>
        <time>2021-04-26T11:43:58+02:00</time>
      </trkpt>
      <trkpt lat="44.57786" lon="3.08354">
        <ele>1394</ele>
        <time>2021-04-26T11:44:03+02:00</time>
      </trkpt>
      <trkpt lat="44.57801" lon="3.08394">
        <ele>1393</ele>
        <time>2021-04-26T11:44:08+02:00</time>
      </trkpt>
      <trkpt lat="44.57817" lon="3.0846">
        <ele>1393</ele>
        <time>2021-04-26T11:44:13+02:00</time>
      </trkpt>
      <trkpt lat="44.57856" lon="3.08597">
        <ele>1392</ele>
        <time>2021-04-26T11:44:18+02:00</time>
      </trkpt>
      <trkpt lat="44.57872" lon="3.08661">
        <ele>1390</ele>
        <time>2021-04-26T11:44:23+02:00</time>
      </trkpt>
      <trkpt lat="44.57885" lon="3.08691">
        <ele>1388</ele>
        <time>2021-04-26T11:44:28+02:00</time>
      </trkpt>
      <trkpt lat="44.57885" lon="3.08709">
        <ele>1387</ele>
        <time>2021-04-26T11:44:33+02:00</time>
      </trkpt>
      <trkpt lat="44.5786" lon="3.0879">
        <ele>1382</ele>
        <time>2021-04-26T11:44:38+02:00</time>
      </trkpt>
      <trkpt lat="44.5782" lon="3.08931">
        <ele>1371</ele>
        <time>2021-04-26T11:44:43+02:00</time>
      </trkpt>
      <trkpt lat="44.57795" lon="3.08983">
        <ele>1366</ele>
        <time>2021-04-26T11:44:48+02:00</time>
      </trkpt>
      <trkpt lat="44.5773" lon="3.09035">
        <ele>1362</ele>
        <time>2021-04-26T11:44:53+02:00</time>
      </trkpt>
      <trkpt lat="44.577" lon="3.0907">
        <ele>1357</ele>
        <time>2021-04-26T11:44:58+02:00</time>
      </trkpt>
      <trkpt lat="44.57675" lon="3.09085">
        <ele>1355</ele>
        <time>2021-04-26T11:45:03+02:00</time>
      </trkpt>
      <trkpt lat="44.57654" lon="3.09118">
        <ele>1350</ele>
        <time>2021-04-26T11:45:08+02:00</time>
      </trkpt>
      <trkpt lat="44.5763" lon="3.09182">
        <ele>1345</ele>
        <time>2021-04-26T11:45:13+02:00</time>
      </trkpt>
      <trkpt lat="44.57624" lon="3.09206">
        <ele>1343</ele>
        <time>2021-04-26T11:45:18+02:00</time>
      </trkpt>
      <trkpt lat="44.57624" lon="3.09209">
        <ele>1343</ele>
        <time>2021-04-26T11:45:23+02:00</time>
      </trkpt>
      <trkpt lat="44.57607" lon="3.09262">
        <ele>1339</ele>
        <time>2021-04-26T11:45:28+02:00</time>
      </trkpt>
      <trkpt lat="44.57611" lon="3.09298">
        <ele>1336</ele>
        <time>2021-04-26T11:45:33+02:00</time>
      </trkpt>
      <trkpt lat="44.57612" lon="3.09341">
        <ele>1333</ele>
        <time>2021-04-26T11:45:38+02:00</time>
      </trkpt>
      <trkpt lat="44.57619" lon="3.09354">
        <ele>1333</ele>
        <time>2021-04-26T11:45:43+02:00</time>
      </trkpt>
      <trkpt lat="44.57623" lon="3.09367">
        <ele>1332</ele>
        <time>2021-04-26T11:45:48+02:00</time>
      </trkpt>
      <trkpt lat="44.57623" lon="3.09356">
        <ele>1333</ele>
        <time>2021-04-26T11:45:53+02:00</time>
      </trkpt>
      <trkpt lat="44.57612" lon="3.09336">
        <ele>1334</ele>
        <time>2021-04-26T11:45:58+02:00</time>
      </trkpt>
      <trkpt lat="44.57607" lon="3.09336">
        <ele>1333</ele>
        <time>2021-04-26T11:46:03+02:00</time>
      </trkpt>
      <trkpt lat="44.57598" lon="3.09408">
        <ele>1327</ele>
        <time>2021-04-26T11:46:08+02:00</time>
      </trkpt>
      <trkpt lat="44.57584" lon="3.09452">
        <ele>1323</ele>
        <time>2021-04-26T11:46:13+02:00</time>
      </trkpt>
      <trkpt lat="44.57585" lon="3.09584">
        <ele>1317</ele>
        <time>2021-04-26T11:46:18+02:00</time>
      </trkpt>
      <trkpt lat="44.57597" lon="3.09667">
        <ele>1315</ele>
        <time>2021-04-26T11:46:23+02:00</time>
      </trkpt>
      <trkpt lat="44.57589" lon="3.09723">
        <ele>1315</ele>
        <time>2021-04-26T11:46:28+02:00</time>
      </trkpt>
      <trkpt lat="44.57588" lon="3.09739">
        <ele>1315</ele>
        <time>2021-04-26T11:46:33+02:00</time>
      </trkpt>
      <trkpt lat="44.57591" lon="3.09774">
        <ele>1314</ele>
        <time>2021-04-26T11:46:38+02:00</time>
      </trkpt>
      <trkpt lat="44.5758" lon="3.09837">
        <ele>1314</ele>
        <time>2021-04-26T11:46:43+02:00</time>
      </trkpt>
      <trkpt lat="44.5757" lon="3.09869">
        <ele>1315</ele>
        <time>2021-04-26T11:46:48+02:00</time>
      </trkpt>
      <trkpt lat="44.57546" lon="3.09977">
        <ele>1322</ele>
        <time>2021-04-26T11:46:53+02:00</time>
      </trkpt>
      <trkpt lat="44.57537" lon="3.10043">
        <ele>1330</ele>
        <time>2021-04-26T11:46:58+02:00</time>
      </trkpt>
      <trkpt lat="44.57531" lon="3.10064">
        <ele>1333</ele>
        <time>2021-04-26T11:47:03+02:00</time>
      </trkpt>
      <trkpt lat="44.57527" lon="3.10093">
        <ele>1337</ele>
        <time>2021-04-26T11:47:08+02:00</time>
      </trkpt>
      <trkpt lat="44.57524" lon="3.101">
        <ele>1337</ele>
        <time>2021-04-26T11:47:13+02:00</time>
      </trkpt>
      <trkpt lat="44.57514" lon="3.10153">
        <ele>1341</ele>
        <time>2021-04-26T11:47:18+02:00</time>
      </trkpt>
      <trkpt lat="44.57492" lon="3.10243">
        <ele>1346</ele>
        <time>2021-04-26T11:47:23+02:00</time>
      </trkpt>
      <trkpt lat="44.57387" lon="3.10602">
        <ele>1372</ele>
        <time>2021-04-26T11:47:28+02:00</time>
      </trkpt>
      <trkpt lat="44.57385" lon="3.10634">
        <ele>1374</ele>
        <time>2021-04-26T11:47:33+02:00</time>
      </trkpt>
      <trkpt lat="44.57388" lon="3.10671">
        <ele>1377</ele>
        <time>2021-04-26T11:47:38+02:00</time>
      </trkpt>
      <trkpt lat="44.57401" lon="3.10706">
        <ele>1378</ele>
        <time>2021-04-26T11:47:43+02:00</time>
      </trkpt>
      <trkpt lat="44.57408" lon="3.10739">
        <ele>1378</ele>
        <time>2021-04-26T11:47:48+02:00</time>
      </trkpt>
      <trkpt lat="44.57416" lon="3.10764">
        <ele>1378</ele>
        <time>2021-04-26T11:47:53+02:00</time>
      </trkpt>
      <trkpt lat="44.57425" lon="3.10915">
        <ele>1371</ele>
        <time>2021-04-26T11:47:58+02:00</time>
      </trkpt>
      <trkpt lat="44.57434" lon="3.11004">
        <ele>1365</ele>
        <time>2021-04-26T11:48:03+02:00</time>
      </trkpt>
      <trkpt lat="44.57446" lon="3.11073">
        <ele>1360</ele>
        <time>2021-04-26T11:48:08+02:00</time>
      </trkpt>
      <trkpt lat="44.57425" lon="3.11192">
        <ele>1353</ele>
        <time>2021-04-26T11:48:13+02:00</time>
      </trkpt>
      <trkpt lat="44.57396" lon="3.11291">
        <ele>1348</ele>
        <time>2021-04-26T11:48:18+02:00</time>
      </trkpt>
      <trkpt lat="44.57349" lon="3.11395">
        <ele>1343</ele>
        <time>2021-04-26T11:48:23+02:00</time>
      </trkpt>
      <trkpt lat="44.57286" lon="3.11476">
        <ele>1337</ele>
        <time>2021-04-26T11:48:28+02:00</time>
      </trkpt>
      <trkpt lat="44.57269" lon="3.11516">
        <ele>1334</ele>
        <time>2021-04-26T11:48:33+02:00</time>
      </trkpt>
      <trkpt lat="44.57254" lon="3.11545">
        <ele>1334</ele>
        <time>2021-04-26T11:48:38+02:00</time>
      </trkpt>
      <trkpt lat="44.57202" lon="3.11687">
        <ele>1326</ele>
        <time>2021-04-26T11:48:43+02:00</time>
      </trkpt>
      <trkpt lat="44.57148" lon="3.11736">
        <ele>1327</ele>
        <time>2021-04-26T11:48:48+02:00</time>
      </trkpt>
      <trkpt lat="44.57138" lon="3.11789">
        <ele>1328</ele>
        <time>2021-04-26T11:48:53+02:00</time>
      </trkpt>
      <trkpt lat="44.57158" lon="3.11835">
        <ele>1328</ele>
        <time>2021-04-26T11:48:58+02:00</time>
      </trkpt>
      <trkpt lat="44.57175" lon="3.11904">
        <ele>1329</ele>
        <time>2021-04-26T11:49:03+02:00</time>
      </trkpt>
      <trkpt lat="44.57194" lon="3.12077">
        <ele>1334</ele>
        <time>2021-04-26T11:49:08+02:00</time>
      </trkpt>
      <trkpt lat="44.57181" lon="3.12142">
        <ele>1338</ele>
        <time>2021-04-26T11:49:13+02:00</time>
      </trkpt>
      <trkpt lat="44.57154" lon="3.12196">
        <ele>1340</ele>
        <time>2021-04-26T11:49:18+02:00</time>
      </trkpt>
      <trkpt lat="44.57146" lon="3.12246">
        <ele>1343</ele>
        <time>2021-04-26T11:49:23+02:00</time>
      </trkpt>
      <trkpt lat="44.57147" lon="3.12275">
        <ele>1345</ele>
        <time>2021-04-26T11:49:28+02:00</time>
      </trkpt>
      <trkpt lat="44.57142" lon="3.12281">
        <ele>1345</ele>
        <time>2021-04-26T11:49:33+02:00</time>
      </trkpt>
      <trkpt lat="44.57125" lon="3.12362">
        <ele>1349</ele>
        <time>2021-04-26T11:49:38+02:00</time>
      </trkpt>
      <trkpt lat="44.57108" lon="3.12372">
        <ele>1350</ele>
        <time>2021-04-26T11:49:43+02:00</time>
      </trkpt>
      <trkpt lat="44.57075" lon="3.12379">
        <ele>1350</ele>
        <time>2021-04-26T11:49:48+02:00</time>
      </trkpt>
      <trkpt lat="44.57041" lon="3.12392">
        <ele>1350</ele>
        <time>2021-04-26T11:49:53+02:00</time>
      </trkpt>
      <trkpt lat="44.57018" lon="3.12434">
        <ele>1354</ele>
        <time>2021-04-26T11:49:58+02:00</time>
      </trkpt>
      <trkpt lat="44.56984" lon="3.12479">
        <ele>1357</ele>
        <time>2021-04-26T11:50:03+02:00</time>
      </trkpt>
      <trkpt lat="44.56965" lon="3.12496">
        <ele>1358</ele>
        <time>2021-04-26T11:50:08+02:00</time>
      </trkpt>
      <trkpt lat="44.56936" lon="3.12539">
        <ele>1360</ele>
        <time>2021-04-26T11:50:13+02:00</time>
      </trkpt>
      <trkpt lat="44.56932" lon="3.12573">
        <ele>1364</ele>
        <time>2021-04-26T11:50:18+02:00</time>
      </trkpt>
      <trkpt lat="44.56926" lon="3.12596">
        <ele>1366</ele>
        <time>2021-04-26T11:50:23+02:00</time>
      </trkpt>
      <trkpt lat="44.56917" lon="3.12624">
        <ele>1369</ele>
        <time>2021-04-26T11:50:28+02:00</time>
      </trkpt>
      <trkpt lat="44.56898" lon="3.12651">
        <ele>1371</ele>
        <time>2021-04-26T11:50:33+02:00</time>
      </trkpt>
      <trkpt lat="44.56888" lon="3.12681">
        <ele>1374</ele>
        <time>2021-04-26T11:50:38+02:00</time>
      </trkpt>
      <trkpt lat="44.56882" lon="3.12723">
        <ele>1379</ele>
        <time>2021-04-26T11:50:43+02:00</time>
      </trkpt>
      <trkpt lat="44.56885" lon="3.12721">
        <ele>1379</ele>
        <time>2021-04-26T11:50:48+02:00</time>
      </trkpt>
      <trkpt lat="44.56883" lon="3.12719">
        <ele>1379</ele>
        <time>2021-04-26T11:50:53+02:00</time>
      </trkpt>
      <trkpt lat="44.56877" lon="3.12723">
        <ele>1379</ele>
        <time>2021-04-26T11:50:58+02:00</time>
      </trkpt>
      <trkpt lat="44.56884" lon="3.1273">
        <ele>1380</ele>
        <time>2021-04-26T11:51:03+02:00</time>
      </trkpt>
      <trkpt lat="44.56844" lon="3.12781">
        <ele>1384</ele>
        <time>2021-04-26T11:51:08+02:00</time>
      </trkpt>
      <trkpt lat="44.568" lon="3.1286">
        <ele>1388</ele>
        <time>2021-04-26T11:51:13+02:00</time>
      </trkpt>
      <trkpt lat="44.56783" lon="3.12904">
        <ele>1389</ele>
        <time>2021-04-26T11:51:18+02:00</time>
      </trkpt>
      <trkpt lat="44.56763" lon="3.12944">
        <ele>1389</ele>
        <time>2021-04-26T11:51:23+02:00</time>
      </trkpt>
      <trkpt lat="44.56713" lon="3.13078">
        <ele>1390</ele>
        <time>2021-04-26T11:51:28+02:00</time>
      </trkpt>
      <trkpt lat="44.5666" lon="3.13175">
        <ele>1390</ele>
        <time>2021-04-26T11:51:33+02:00</time>
      </trkpt>
      <trkpt lat="44.56612" lon="3.13273">
        <ele>1391</ele>
        <time>2021-04-26T11:51:38+02:00</time>
      </trkpt>
      <trkpt lat="44.56579" lon="3.13312">
        <ele>1390</ele>
        <time>2021-04-26T11:51:43+02:00</time>
      </trkpt>
      <trkpt lat="44.56558" lon="3.13349">
        <ele>1390</ele>
        <time>2021-04-26T11:51:48+02:00</time>
      </trkpt>
      <trkpt lat="44.56526" lon="3.13382">
        <ele>1389</ele>
        <time>2021-04-26T11:51:53+02:00</time>
      </trkpt>
      <trkpt lat="44.56502" lon="3.13403">
        <ele>1389</ele>
        <time>2021-04-26T11:51:58+02:00</time>
      </trkpt>
      <trkpt lat="44.56502" lon="3.1346">
        <ele>1388</ele>
        <time>2021-04-26T11:52:03+02:00</time>
      </trkpt>
      <trkpt lat="44.56484" lon="3.13521">
        <ele>1388</ele>
        <time>2021-04-26T11:52:08+02:00</time>
      </trkpt>
      <trkpt lat="44.56491" lon="3.13579">
        <ele>1388</ele>
        <time>2021-04-26T11:52:13+02:00</time>
      </trkpt>
      <trkpt lat="44.56481" lon="3.13641">
        <ele>1387</ele>
        <time>2021-04-26T11:52:18+02:00</time>
      </trkpt>
      <trkpt lat="44.56439" lon="3.13793">
        <ele>1388</ele>
        <time>2021-04-26T11:52:23+02:00</time>
      </trkpt>
      <trkpt lat="44.56418" lon="3.13859">
        <ele>1389</ele>
        <time>2021-04-26T11:52:28+02:00</time>
      </trkpt>
      <trkpt lat="44.56394" lon="3.13923">
        <ele>1389</ele>
        <time>2021-04-26T11:52:33+02:00</time>
      </trkpt>
      <trkpt lat="44.56389" lon="3.13993">
        <ele>1389</ele>
        <time>2021-04-26T11:52:38+02:00</time>
      </trkpt>
      <trkpt lat="44.56379" lon="3.14069">
        <ele>1387</ele>
        <time>2021-04-26T11:52:43+02:00</time>
      </trkpt>
      <trkpt lat="44.56346" lon="3.14174">
        <ele>1384</ele>
        <time>2021-04-26T11:52:48+02:00</time>
      </trkpt>
      <trkpt lat="44.56273" lon="3.14307">
        <ele>1380</ele>
        <time>2021-04-26T11:52:53+02:00</time>
      </trkpt>
      <trkpt lat="44.56247" lon="3.14342">
        <ele>1378</ele>
        <time>2021-04-26T11:52:58+02:00</time>
      </trkpt>
      <trkpt lat="44.56227" lon="3.14375">
        <ele>1376</ele>
        <time>2021-04-26T11:53:03+02:00</time>
      </trkpt>
      <trkpt lat="44.56209" lon="3.1439">
        <ele>1375</ele>
        <time>2021-04-26T11:53:08+02:00</time>
      </trkpt>
      <trkpt lat="44.56205" lon="3.14399">
        <ele>1374</ele>
        <time>2021-04-26T11:53:13+02:00</time>
      </trkpt>
      <trkpt lat="44.56183" lon="3.14425">
        <ele>1373</ele>
        <time>2021-04-26T11:53:18+02:00</time>
      </trkpt>
      <trkpt lat="44.56141" lon="3.14535">
        <ele>1368</ele>
        <time>2021-04-26T11:53:23+02:00</time>
      </trkpt>
      <trkpt lat="44.56112" lon="3.14583">
        <ele>1367</ele>
        <time>2021-04-26T11:53:28+02:00</time>
      </trkpt>
      <trkpt lat="44.56076" lon="3.14662">
        <ele>1366</ele>
        <time>2021-04-26T11:53:33+02:00</time>
      </trkpt>
      <trkpt lat="44.56053" lon="3.14729">
        <ele>1366</ele>
        <time>2021-04-26T11:53:38+02:00</time>
      </trkpt>
      <trkpt lat="44.56036" lon="3.14873">
        <ele>1369</ele>
        <time>2021-04-26T11:53:43+02:00</time>
      </trkpt>
      <trkpt lat="44.56007" lon="3.1495">
        <ele>1370</ele>
        <time>2021-04-26T11:53:48+02:00</time>
      </trkpt>
      <trkpt lat="44.55983" lon="3.15004">
        <ele>1371</ele>
        <time>2021-04-26T11:53:53+02:00</time>
      </trkpt>
      <trkpt lat="44.55904" lon="3.15235">
        <ele>1368</ele>
        <time>2021-04-26T11:53:58+02:00</time>
      </trkpt>
      <trkpt lat="44.55842" lon="3.15435">
        <ele>1366</ele>
        <time>2021-04-26T11:54:03+02:00</time>
      </trkpt>
      <trkpt lat="44.5582" lon="3.15483">
        <ele>1365</ele>
        <time>2021-04-26T11:54:08+02:00</time>
      </trkpt>
      <trkpt lat="44.5581" lon="3.1555">
        <ele>1364</ele>
        <time>2021-04-26T11:54:13+02:00</time>
      </trkpt>
      <trkpt lat="44.55814" lon="3.15643">
        <ele>1362</ele>
        <time>2021-04-26T11:54:18+02:00</time>
      </trkpt>
      <trkpt lat="44.55829" lon="3.15755">
        <ele>1361</ele>
        <time>2021-04-26T11:54:23+02:00</time>
      </trkpt>
      <trkpt lat="44.55812" lon="3.15811">
        <ele>1360</ele>
        <time>2021-04-26T11:54:28+02:00</time>
      </trkpt>
      <trkpt lat="44.55767" lon="3.15861">
        <ele>1358</ele>
        <time>2021-04-26T11:54:33+02:00</time>
      </trkpt>
      <trkpt lat="44.55777" lon="3.15904">
        <ele>1357</ele>
        <time>2021-04-26T11:54:38+02:00</time>
      </trkpt>
      <trkpt lat="44.55782" lon="3.15937">
        <ele>1356</ele>
        <time>2021-04-26T11:54:43+02:00</time>
      </trkpt>
      <trkpt lat="44.55818" lon="3.16057">
        <ele>1356</ele>
        <time>2021-04-26T11:54:48+02:00</time>
      </trkpt>
      <trkpt lat="44.55837" lon="3.16099">
        <ele>1356</ele>
        <time>2021-04-26T11:54:53+02:00</time>
      </trkpt>
      <trkpt lat="44.55865" lon="3.16143">
        <ele>1357</ele>
        <time>2021-04-26T11:54:58+02:00</time>
      </trkpt>
      <trkpt lat="44.55869" lon="3.16145">
        <ele>1356</ele>
        <time>2021-04-26T11:55:03+02:00</time>
      </trkpt>
      <trkpt lat="44.55868" lon="3.16141">
        <ele>1356</ele>
        <time>2021-04-26T11:55:08+02:00</time>
      </trkpt>
      <trkpt lat="44.55871" lon="3.16138">
        <ele>1356</ele>
        <time>2021-04-26T11:55:13+02:00</time>
      </trkpt>
      <trkpt lat="44.55875" lon="3.16144">
        <ele>1356</ele>
        <time>2021-04-26T11:55:18+02:00</time>
      </trkpt>
      <trkpt lat="44.55878" lon="3.16144">
        <ele>1356</ele>
        <time>2021-04-26T11:55:23+02:00</time>
      </trkpt>
      <trkpt lat="44.55889" lon="3.1615">
        <ele>1355</ele>
        <time>2021-04-26T11:55:28+02:00</time>
      </trkpt>
      <trkpt lat="44.56021" lon="3.16178">
        <ele>1347</ele>
        <time>2021-04-26T11:55:33+02:00</time>
      </trkpt>
      <trkpt lat="44.5614" lon="3.16211">
        <ele>1348</ele>
        <time>2021-04-26T11:55:38+02:00</time>
      </trkpt>
      <trkpt lat="44.56164" lon="3.16223">
        <ele>1346</ele>
        <time>2021-04-26T11:55:43+02:00</time>
      </trkpt>
      <trkpt lat="44.56223" lon="3.1625">
        <ele>1338</ele>
        <time>2021-04-26T11:55:48+02:00</time>
      </trkpt>
      <trkpt lat="44.56234" lon="3.1626">
        <ele>1337</ele>
        <time>2021-04-26T11:55:53+02:00</time>
      </trkpt>
      <trkpt lat="44.56244" lon="3.16259">
        <ele>1335</ele>
        <time>2021-04-26T11:55:58+02:00</time>
      </trkpt>
      <trkpt lat="44.56264" lon="3.16265">
        <ele>1332</ele>
        <time>2021-04-26T11:56:03+02:00</time>
      </trkpt>
      <trkpt lat="44.5629" lon="3.16281">
        <ele>1328</ele>
        <time>2021-04-26T11:56:08+02:00</time>
      </trkpt>
      <trkpt lat="44.56305" lon="3.16294">
        <ele>1326</ele>
        <time>2021-04-26T11:56:13+02:00</time>
      </trkpt>
      <trkpt lat="44.56335" lon="3.16303">
        <ele>1321</ele>
        <time>2021-04-26T11:56:18+02:00</time>
      </trkpt>
      <trkpt lat="44.56373" lon="3.16324">
        <ele>1316</ele>
        <time>2021-04-26T11:56:23+02:00</time>
      </trkpt>
      <trkpt lat="44.5638" lon="3.16325">
        <ele>1315</ele>
        <time>2021-04-26T11:56:28+02:00</time>
      </trkpt>
      <trkpt lat="44.56433" lon="3.16358">
        <ele>1307</ele>
        <time>2021-04-26T11:56:33+02:00</time>
      </trkpt>
      <trkpt lat="44.56454" lon="3.16366">
        <ele>1302</ele>
        <time>2021-04-26T11:56:38+02:00</time>
      </trkpt>
      <trkpt lat="44.56461" lon="3.16372">
        <ele>1301</ele>
        <time>2021-04-26T11:56:43+02:00</time>
      </trkpt>
      <trkpt lat="44.56476" lon="3.1637">
        <ele>1296</ele>
        <time>2021-04-26T11:56:48+02:00</time>
      </trkpt>
      <trkpt lat="44.565" lon="3.16385">
        <ele>1289</ele>
        <time>2021-04-26T11:56:53+02:00</time>
      </trkpt>
      <trkpt lat="44.56505" lon="3.16383">
        <ele>1287</ele>
        <time>2021-04-26T11:56:58+02:00</time>
      </trkpt>
      <trkpt lat="44.56519" lon="3.16391">
        <ele>1283</ele>
        <time>2021-04-26T11:57:03+02:00</time>
      </trkpt>
      <trkpt lat="44.56532" lon="3.16383">
        <ele>1277</ele>
        <time>2021-04-26T11:57:08+02:00</time>
      </trkpt>
      <trkpt lat="44.56539" lon="3.16385">
        <ele>1275</ele>
        <time>2021-04-26T11:57:13+02:00</time>
      </trkpt>
      <trkpt lat="44.56552" lon="3.1641">
        <ele>1273</ele>
        <time>2021-04-26T11:57:18+02:00</time>
      </trkpt>
      <trkpt lat="44.5656" lon="3.1642">
        <ele>1272</ele>
        <time>2021-04-26T11:57:23+02:00</time>
      </trkpt>
      <trkpt lat="44.56574" lon="3.16428">
        <ele>1269</ele>
        <time>2021-04-26T11:57:28+02:00</time>
      </trkpt>
      <trkpt lat="44.56572" lon="3.16416">
        <ele>1268</ele>
        <time>2021-04-26T11:57:33+02:00</time>
      </trkpt>
      <trkpt lat="44.56575" lon="3.16429">
        <ele>1268</ele>
        <time>2021-04-26T11:57:38+02:00</time>
      </trkpt>
      <trkpt lat="44.56571" lon="3.16429">
        <ele>1270</ele>
        <time>2021-04-26T11:57:43+02:00</time>
      </trkpt>
      <trkpt lat="44.56572" lon="3.16424">
        <ele>1269</ele>
        <time>2021-04-26T11:57:48+02:00</time>
      </trkpt>
      <trkpt lat="44.56571" lon="3.16429">
        <ele>1270</ele>
        <time>2021-04-26T11:57:53+02:00</time>
      </trkpt>
      <trkpt lat="44.56568" lon="3.16424">
        <ele>1270</ele>
        <time>2021-04-26T11:57:58+02:00</time>
      </trkpt>
      <trkpt lat="44.56586" lon="3.16429">
        <ele>1266</ele>
        <time>2021-04-26T11:58:03+02:00</time>
      </trkpt>
      <trkpt lat="44.56597" lon="3.16429">
        <ele>1265</ele>
        <time>2021-04-26T11:58:08+02:00</time>
      </trkpt>
      <trkpt lat="44.56615" lon="3.1642">
        <ele>1262</ele>
        <time>2021-04-26T11:58:13+02:00</time>
      </trkpt>
      <trkpt lat="44.56631" lon="3.16423">
        <ele>1261</ele>
        <time>2021-04-26T11:58:18+02:00</time>
      </trkpt>
      <trkpt lat="44.56696" lon="3.16361">
        <ele>1254</ele>
        <time>2021-04-26T11:58:23+02:00</time>
      </trkpt>
      <trkpt lat="44.56708" lon="3.16343">
        <ele>1252</ele>
        <time>2021-04-26T11:58:28+02:00</time>
      </trkpt>
      <trkpt lat="44.56734" lon="3.16314">
        <ele>1248</ele>
        <time>2021-04-26T11:58:33+02:00</time>
      </trkpt>
      <trkpt lat="44.56834" lon="3.16243">
        <ele>1240</ele>
        <time>2021-04-26T11:58:38+02:00</time>
      </trkpt>
      <trkpt lat="44.56879" lon="3.16216">
        <ele>1238</ele>
        <time>2021-04-26T11:58:43+02:00</time>
      </trkpt>
      <trkpt lat="44.57002" lon="3.16179">
        <ele>1233</ele>
        <time>2021-04-26T11:58:48+02:00</time>
      </trkpt>
      <trkpt lat="44.57032" lon="3.16181">
        <ele>1232</ele>
        <time>2021-04-26T11:58:53+02:00</time>
      </trkpt>
      <trkpt lat="44.57063" lon="3.16189">
        <ele>1229</ele>
        <time>2021-04-26T11:58:58+02:00</time>
      </trkpt>
      <trkpt lat="44.57091" lon="3.162">
        <ele>1225</ele>
        <time>2021-04-26T11:59:03+02:00</time>
      </trkpt>
      <trkpt lat="44.5715" lon="3.163">
        <ele>1218</ele>
        <time>2021-04-26T11:59:08+02:00</time>
      </trkpt>
      <trkpt lat="44.5716" lon="3.16369">
        <ele>1219</ele>
        <time>2021-04-26T11:59:13+02:00</time>
      </trkpt>
      <trkpt lat="44.57183" lon="3.16407">
        <ele>1214</ele>
        <time>2021-04-26T11:59:18+02:00</time>
      </trkpt>
      <trkpt lat="44.57192" lon="3.16432">
        <ele>1213</ele>
        <time>2021-04-26T11:59:23+02:00</time>
      </trkpt>
      <trkpt lat="44.57194" lon="3.16429">
        <ele>1212</ele>
        <time>2021-04-26T11:59:28+02:00</time>
      </trkpt>
      <trkpt lat="44.57198" lon="3.16429">
        <ele>1211</ele>
        <time>2021-04-26T11:59:33+02:00</time>
      </trkpt>
      <trkpt lat="44.57193" lon="3.16391">
        <ele>1210</ele>
        <time>2021-04-26T11:59:38+02:00</time>
      </trkpt>
      <trkpt lat="44.57196" lon="3.16344">
        <ele>1208</ele>
        <time>2021-04-26T11:59:43+02:00</time>
      </trkpt>
      <trkpt lat="44.57238" lon="3.16202">
        <ele>1201</ele>
        <time>2021-04-26T11:59:48+02:00</time>
      </trkpt>
      <trkpt lat="44.57265" lon="3.16141">
        <ele>1200</ele>
        <time>2021-04-26T11:59:53+02:00</time>
      </trkpt>
      <trkpt lat="44.5734" lon="3.16032">
        <ele>1197</ele>
        <time>2021-04-26T11:59:58+02:00</time>
      </trkpt>
      <trkpt lat="44.57377" lon="3.15997">
        <ele>1195</ele>
        <time>2021-04-26T12:00:03+02:00</time>
      </trkpt>
      <trkpt lat="44.5743" lon="3.15971">
        <ele>1188</ele>
        <time>2021-04-26T12:00:08+02:00</time>
      </trkpt>
      <trkpt lat="44.5748" lon="3.15881">
        <ele>1186</ele>
        <time>2021-04-26T12:00:13+02:00</time>
      </trkpt>
      <trkpt lat="44.57566" lon="3.1576">
        <ele>1177</ele>
        <time>2021-04-26T12:00:18+02:00</time>
      </trkpt>
      <trkpt lat="44.57622" lon="3.15686">
        <ele>1170</ele>
        <time>2021-04-26T12:00:23+02:00</time>
      </trkpt>
      <trkpt lat="44.57647" lon="3.15677">
        <ele>1169</ele>
        <time>2021-04-26T12:00:28+02:00</time>
      </trkpt>
      <trkpt lat="44.57652" lon="3.15673">
        <ele>1169</ele>
        <time>2021-04-26T12:00:33+02:00</time>
      </trkpt>
      <trkpt lat="44.57659" lon="3.15673">
        <ele>1168</ele>
        <time>2021-04-26T12:00:38+02:00</time>
      </trkpt>
      <trkpt lat="44.5767" lon="3.15668">
        <ele>1168</ele>
        <time>2021-04-26T12:00:43+02:00</time>
      </trkpt>
      <trkpt lat="44.57693" lon="3.15651">
        <ele>1169</ele>
        <time>2021-04-26T12:00:48+02:00</time>
      </trkpt>
      <trkpt lat="44.57711" lon="3.15654">
        <ele>1168</ele>
        <time>2021-04-26T12:00:53+02:00</time>
      </trkpt>
      <trkpt lat="44.57726" lon="3.15688">
        <ele>1167</ele>
        <time>2021-04-26T12:00:58+02:00</time>
      </trkpt>
      <trkpt lat="44.57742" lon="3.15708">
        <ele>1168</ele>
        <time>2021-04-26T12:01:03+02:00</time>
      </trkpt>
      <trkpt lat="44.57785" lon="3.15714">
        <ele>1175</ele>
        <time>2021-04-26T12:01:08+02:00</time>
      </trkpt>
      <trkpt lat="44.578" lon="3.1573">
        <ele>1179</ele>
        <time>2021-04-26T12:01:13+02:00</time>
      </trkpt>
      <trkpt lat="44.57805" lon="3.1576">
        <ele>1181</ele>
        <time>2021-04-26T12:01:18+02:00</time>
      </trkpt>
      <trkpt lat="44.57806" lon="3.15791">
        <ele>1182</ele>
        <time>2021-04-26T12:01:23+02:00</time>
      </trkpt>
      <trkpt lat="44.57821" lon="3.15822">
        <ele>1185</ele>
        <time>2021-04-26T12:01:28+02:00</time>
      </trkpt>
      <trkpt lat="44.57843" lon="3.15854">
        <ele>1190</ele>
        <time>2021-04-26T12:01:33+02:00</time>
      </trkpt>
      <trkpt lat="44.57856" lon="3.1589">
        <ele>1191</ele>
        <time>2021-04-26T12:01:38+02:00</time>
      </trkpt>
      <trkpt lat="44.57876" lon="3.1589">
        <ele>1192</ele>
        <time>2021-04-26T12:01:43+02:00</time>
      </trkpt>
      <trkpt lat="44.57878" lon="3.15925">
        <ele>1189</ele>
        <time>2021-04-26T12:01:48+02:00</time>
      </trkpt>
      <trkpt lat="44.57903" lon="3.15952">
        <ele>1187</ele>
        <time>2021-04-26T12:01:53+02:00</time>
      </trkpt>
      <trkpt lat="44.57947" lon="3.15986">
        <ele>1186</ele>
        <time>2021-04-26T12:01:58+02:00</time>
      </trkpt>
      <trkpt lat="44.57962" lon="3.16042">
        <ele>1187</ele>
        <time>2021-04-26T12:02:03+02:00</time>
      </trkpt>
      <trkpt lat="44.57966" lon="3.16069">
        <ele>1188</ele>
        <time>2021-04-26T12:02:08+02:00</time>
      </trkpt>
      <trkpt lat="44.57996" lon="3.16113">
        <ele>1193</ele>
        <time>2021-04-26T12:02:13+02:00</time>
      </trkpt>
      <trkpt lat="44.58012" lon="3.16129">
        <ele>1195</ele>
        <time>2021-04-26T12:02:18+02:00</time>
      </trkpt>
      <trkpt lat="44.58018" lon="3.16128">
        <ele>1196</ele>
        <time>2021-04-26T12:02:23+02:00</time>
      </trkpt>
      <trkpt lat="44.5803" lon="3.16118">
        <ele>1198</ele>
        <time>2021-04-26T12:02:28+02:00</time>
      </trkpt>
      <trkpt lat="44.58052" lon="3.16115">
        <ele>1201</ele>
        <time>2021-04-26T12:02:33+02:00</time>
      </trkpt>
      <trkpt lat="44.58074" lon="3.16182">
        <ele>1204</ele>
        <time>2021-04-26T12:02:38+02:00</time>
      </trkpt>
      <trkpt lat="44.58083" lon="3.16288">
        <ele>1208</ele>
        <time>2021-04-26T12:02:43+02:00</time>
      </trkpt>
      <trkpt lat="44.58077" lon="3.1639">
        <ele>1213</ele>
        <time>2021-04-26T12:02:48+02:00</time>
      </trkpt>
      <trkpt lat="44.58067" lon="3.16459">
        <ele>1216</ele>
        <time>2021-04-26T12:02:53+02:00</time>
      </trkpt>
      <trkpt lat="44.58071" lon="3.16505">
        <ele>1219</ele>
        <time>2021-04-26T12:02:58+02:00</time>
      </trkpt>
      <trkpt lat="44.58098" lon="3.16564">
        <ele>1226</ele>
        <time>2021-04-26T12:03:03+02:00</time>
      </trkpt>
      <trkpt lat="44.58129" lon="3.16626">
        <ele>1232</ele>
        <time>2021-04-26T12:03:08+02:00</time>
      </trkpt>
      <trkpt lat="44.58143" lon="3.16662">
        <ele>1235</ele>
        <time>2021-04-26T12:03:13+02:00</time>
      </trkpt>
      <trkpt lat="44.58187" lon="3.16814">
        <ele>1240</ele>
        <time>2021-04-26T12:03:18+02:00</time>
      </trkpt>
      <trkpt lat="44.58211" lon="3.16919">
        <ele>1243</ele>
        <time>2021-04-26T12:03:23+02:00</time>
      </trkpt>
      <trkpt lat="44.58227" lon="3.16963">
        <ele>1245</ele>
        <time>2021-04-26T12:03:28+02:00</time>
      </trkpt>
      <trkpt lat="44.58247" lon="3.16997">
        <ele>1246</ele>
        <time>2021-04-26T12:03:33+02:00</time>
      </trkpt>
      <trkpt lat="44.58283" lon="3.1713">
        <ele>1243</ele>
        <time>2021-04-26T12:03:38+02:00</time>
      </trkpt>
      <trkpt lat="44.58291" lon="3.17156">
        <ele>1242</ele>
        <time>2021-04-26T12:03:43+02:00</time>
      </trkpt>
      <trkpt lat="44.58329" lon="3.17245">
        <ele>1235</ele>
        <time>2021-04-26T12:03:48+02:00</time>
      </trkpt>
      <trkpt lat="44.58337" lon="3.17332">
        <ele>1232</ele>
        <time>2021-04-26T12:03:53+02:00</time>
      </trkpt>
      <trkpt lat="44.58346" lon="3.17382">
        <ele>1233</ele>
        <time>2021-04-26T12:03:58+02:00</time>
      </trkpt>
      <trkpt lat="44.58365" lon="3.17431">
        <ele>1234</ele>
        <time>2021-04-26T12:04:03+02:00</time>
      </trkpt>
      <trkpt lat="44.58436" lon="3.17555">
        <ele>1238</ele>
        <time>2021-04-26T12:04:08+02:00</time>
      </trkpt>
      <trkpt lat="44.5846" lon="3.1759">
        <ele>1240</ele>
        <time>2021-04-26T12:04:13+02:00</time>
      </trkpt>
      <trkpt lat="44.58498" lon="3.17616">
        <ele>1240</ele>
        <time>2021-04-26T12:04:18+02:00</time>
      </trkpt>
      <trkpt lat="44.58562" lon="3.17652">
        <ele>1239</ele>
        <time>2021-04-26T12:04:23+02:00</time>
      </trkpt>
      <trkpt lat="44.58622" lon="3.17702">
        <ele>1240</ele>
        <time>2021-04-26T12:04:28+02:00</time>
      </trkpt>
      <trkpt lat="44.58685" lon="3.17767">
        <ele>1241</ele>
        <time>2021-04-26T12:04:33+02:00</time>
      </trkpt>
      <trkpt lat="44.58734" lon="3.17813">
        <ele>1243</ele>
        <time>2021-04-26T12:04:38+02:00</time>
      </trkpt>
      <trkpt lat="44.58778" lon="3.17842">
        <ele>1245</ele>
        <time>2021-04-26T12:04:43+02:00</time>
      </trkpt>
      <trkpt lat="44.58779" lon="3.17854">
        <ele>1246</ele>
        <time>2021-04-26T12:04:48+02:00</time>
      </trkpt>
      <trkpt lat="44.5877" lon="3.17861">
        <ele>1247</ele>
        <time>2021-04-26T12:04:53+02:00</time>
      </trkpt>
      <trkpt lat="44.58784" lon="3.17854">
        <ele>1246</ele>
        <time>2021-04-26T12:04:58+02:00</time>
      </trkpt>
      <trkpt lat="44.58805" lon="3.17856">
        <ele>1246</ele>
        <time>2021-04-26T12:05:03+02:00</time>
      </trkpt>
      <trkpt lat="44.58849" lon="3.17874">
        <ele>1249</ele>
        <time>2021-04-26T12:05:08+02:00</time>
      </trkpt>
      <trkpt lat="44.58885" lon="3.17919">
        <ele>1253</ele>
        <time>2021-04-26T12:05:13+02:00</time>
      </trkpt>
      <trkpt lat="44.58919" lon="3.17983">
        <ele>1252</ele>
        <time>2021-04-26T12:05:18+02:00</time>
      </trkpt>
      <trkpt lat="44.58944" lon="3.1804">
        <ele>1245</ele>
        <time>2021-04-26T12:05:23+02:00</time>
      </trkpt>
      <trkpt lat="44.58992" lon="3.18069">
        <ele>1236</ele>
        <time>2021-04-26T12:05:28+02:00</time>
      </trkpt>
      <trkpt lat="44.59004" lon="3.18102">
        <ele>1232</ele>
        <time>2021-04-26T12:05:33+02:00</time>
      </trkpt>
      <trkpt lat="44.59005" lon="3.18174">
        <ele>1225</ele>
        <time>2021-04-26T12:05:38+02:00</time>
      </trkpt>
      <trkpt lat="44.59013" lon="3.1823">
        <ele>1223</ele>
        <time>2021-04-26T12:05:43+02:00</time>
      </trkpt>
      <trkpt lat="44.59028" lon="3.18263">
        <ele>1224</ele>
        <time>2021-04-26T12:05:48+02:00</time>
      </trkpt>
      <trkpt lat="44.59044" lon="3.1831">
        <ele>1227</ele>
        <time>2021-04-26T12:05:53+02:00</time>
      </trkpt>
      <trkpt lat="44.59049" lon="3.18341">
        <ele>1229</ele>
        <time>2021-04-26T12:05:58+02:00</time>
      </trkpt>
      <trkpt lat="44.59057" lon="3.18423">
        <ele>1239</ele>
        <time>2021-04-26T12:06:03+02:00</time>
      </trkpt>
      <trkpt lat="44.59063" lon="3.18499">
        <ele>1247</ele>
        <time>2021-04-26T12:06:08+02:00</time>
      </trkpt>
      <trkpt lat="44.59083" lon="3.18559">
        <ele>1252</ele>
        <time>2021-04-26T12:06:13+02:00</time>
      </trkpt>
      <trkpt lat="44.59096" lon="3.18585">
        <ele>1255</ele>
        <time>2021-04-26T12:06:18+02:00</time>
      </trkpt>
      <trkpt lat="44.59143" lon="3.18657">
        <ele>1257</ele>
        <time>2021-04-26T12:06:23+02:00</time>
      </trkpt>
      <trkpt lat="44.59143" lon="3.18654">
        <ele>1258</ele>
        <time>2021-04-26T12:06:28+02:00</time>
      </trkpt>
      <trkpt lat="44.59152" lon="3.18669">
        <ele>1257</ele>
        <time>2021-04-26T12:06:33+02:00</time>
      </trkpt>
      <trkpt lat="44.5923" lon="3.18763">
        <ele>1251</ele>
        <time>2021-04-26T12:06:38+02:00</time>
      </trkpt>
      <trkpt lat="44.59269" lon="3.18823">
        <ele>1246</ele>
        <time>2021-04-26T12:06:43+02:00</time>
      </trkpt>
      <trkpt lat="44.59341" lon="3.18907">
        <ele>1249</ele>
        <time>2021-04-26T12:06:48+02:00</time>
      </trkpt>
      <trkpt lat="44.59355" lon="3.18938">
        <ele>1250</ele>
        <time>2021-04-26T12:06:53+02:00</time>
      </trkpt>
      <trkpt lat="44.59364" lon="3.18972">
        <ele>1251</ele>
        <time>2021-04-26T12:06:58+02:00</time>
      </trkpt>
      <trkpt lat="44.59366" lon="3.19011">
        <ele>1252</ele>
        <time>2021-04-26T12:07:03+02:00</time>
      </trkpt>
      <trkpt lat="44.59364" lon="3.19057">
        <ele>1254</ele>
        <time>2021-04-26T12:07:08+02:00</time>
      </trkpt>
      <trkpt lat="44.59378" lon="3.19147">
        <ele>1257</ele>
        <time>2021-04-26T12:07:13+02:00</time>
      </trkpt>
      <trkpt lat="44.59374" lon="3.19176">
        <ele>1258</ele>
        <time>2021-04-26T12:07:18+02:00</time>
      </trkpt>
      <trkpt lat="44.59369" lon="3.19281">
        <ele>1263</ele>
        <time>2021-04-26T12:07:23+02:00</time>
      </trkpt>
      <trkpt lat="44.59369" lon="3.19317">
        <ele>1264</ele>
        <time>2021-04-26T12:07:28+02:00</time>
      </trkpt>
      <trkpt lat="44.59374" lon="3.19362">
        <ele>1266</ele>
        <time>2021-04-26T12:07:33+02:00</time>
      </trkpt>
      <trkpt lat="44.59385" lon="3.19396">
        <ele>1266</ele>
        <time>2021-04-26T12:07:38+02:00</time>
      </trkpt>
      <trkpt lat="44.59396" lon="3.19407">
        <ele>1266</ele>
        <time>2021-04-26T12:07:43+02:00</time>
      </trkpt>
      <trkpt lat="44.59395" lon="3.19406">
        <ele>1266</ele>
        <time>2021-04-26T12:07:48+02:00</time>
      </trkpt>
      <trkpt lat="44.59396" lon="3.19404">
        <ele>1266</ele>
        <time>2021-04-26T12:07:53+02:00</time>
      </trkpt>
      <trkpt lat="44.59394" lon="3.19407">
        <ele>1266</ele>
        <time>2021-04-26T12:07:58+02:00</time>
      </trkpt>
      <trkpt lat="44.5941" lon="3.19427">
        <ele>1266</ele>
        <time>2021-04-26T12:08:03+02:00</time>
      </trkpt>
      <trkpt lat="44.5948" lon="3.19501">
        <ele>1260</ele>
        <time>2021-04-26T12:08:08+02:00</time>
      </trkpt>
      <trkpt lat="44.59529" lon="3.19556">
        <ele>1255</ele>
        <time>2021-04-26T12:08:13+02:00</time>
      </trkpt>
      <trkpt lat="44.59545" lon="3.19565">
        <ele>1254</ele>
        <time>2021-04-26T12:08:18+02:00</time>
      </trkpt>
      <trkpt lat="44.59588" lon="3.19541">
        <ele>1254</ele>
        <time>2021-04-26T12:08:23+02:00</time>
      </trkpt>
      <trkpt lat="44.59597" lon="3.19533">
        <ele>1254</ele>
        <time>2021-04-26T12:08:28+02:00</time>
      </trkpt>
      <trkpt lat="44.5961" lon="3.19508">
        <ele>1254</ele>
        <time>2021-04-26T12:08:33+02:00</time>
      </trkpt>
      <trkpt lat="44.59662" lon="3.19445">
        <ele>1254</ele>
        <time>2021-04-26T12:08:38+02:00</time>
      </trkpt>
      <trkpt lat="44.59674" lon="3.19448">
        <ele>1254</ele>
        <time>2021-04-26T12:08:43+02:00</time>
      </trkpt>
      <trkpt lat="44.59721" lon="3.19476">
        <ele>1250</ele>
        <time>2021-04-26T12:08:48+02:00</time>
      </trkpt>
      <trkpt lat="44.59771" lon="3.1951">
        <ele>1241</ele>
        <time>2021-04-26T12:08:53+02:00</time>
      </trkpt>
      <trkpt lat="44.59778" lon="3.1951">
        <ele>1241</ele>
        <time>2021-04-26T12:08:58+02:00</time>
      </trkpt>
      <trkpt lat="44.59779" lon="3.19517">
        <ele>1240</ele>
        <time>2021-04-26T12:09:03+02:00</time>
      </trkpt>
      <trkpt lat="44.59785" lon="3.19508">
        <ele>1241</ele>
        <time>2021-04-26T12:09:08+02:00</time>
      </trkpt>
      <trkpt lat="44.59837" lon="3.19516">
        <ele>1239</ele>
        <time>2021-04-26T12:09:13+02:00</time>
      </trkpt>
      <trkpt lat="44.59868" lon="3.19513">
        <ele>1238</ele>
        <time>2021-04-26T12:09:18+02:00</time>
      </trkpt>
      <trkpt lat="44.59895" lon="3.19505">
        <ele>1239</ele>
        <time>2021-04-26T12:09:23+02:00</time>
      </trkpt>
      <trkpt lat="44.59934" lon="3.19519">
        <ele>1235</ele>
        <time>2021-04-26T12:09:28+02:00</time>
      </trkpt>
      <trkpt lat="44.59942" lon="3.19523">
        <ele>1234</ele>
        <time>2021-04-26T12:09:33+02:00</time>
      </trkpt>
      <trkpt lat="44.59954" lon="3.19539">
        <ele>1230</ele>
        <time>2021-04-26T12:09:38+02:00</time>
      </trkpt>
      <trkpt lat="44.59963" lon="3.19546">
        <ele>1228</ele>
        <time>2021-04-26T12:09:43+02:00</time>
      </trkpt>
      <trkpt lat="44.59966" lon="3.19541">
        <ele>1229</ele>
        <time>2021-04-26T12:09:48+02:00</time>
      </trkpt>
      <trkpt lat="44.60005" lon="3.19555">
        <ele>1225</ele>
        <time>2021-04-26T12:09:53+02:00</time>
      </trkpt>
      <trkpt lat="44.60027" lon="3.19574">
        <ele>1220</ele>
        <time>2021-04-26T12:09:58+02:00</time>
      </trkpt>
      <trkpt lat="44.60045" lon="3.19569">
        <ele>1220</ele>
        <time>2021-04-26T12:10:03+02:00</time>
      </trkpt>
      <trkpt lat="44.60057" lon="3.19551">
        <ele>1224</ele>
        <time>2021-04-26T12:10:08+02:00</time>
      </trkpt>
      <trkpt lat="44.60081" lon="3.19539">
        <ele>1228</ele>
        <time>2021-04-26T12:10:13+02:00</time>
      </trkpt>
      <trkpt lat="44.60098" lon="3.19545">
        <ele>1226</ele>
        <time>2021-04-26T12:10:18+02:00</time>
      </trkpt>
      <trkpt lat="44.60147" lon="3.19552">
        <ele>1226</ele>
        <time>2021-04-26T12:10:23+02:00</time>
      </trkpt>
      <trkpt lat="44.60214" lon="3.19606">
        <ele>1219</ele>
        <time>2021-04-26T12:10:28+02:00</time>
      </trkpt>
      <trkpt lat="44.60238" lon="3.19643">
        <ele>1214</ele>
        <time>2021-04-26T12:10:33+02:00</time>
      </trkpt>
      <trkpt lat="44.60254" lon="3.19649">
        <ele>1215</ele>
        <time>2021-04-26T12:10:38+02:00</time>
      </trkpt>
      <trkpt lat="44.60263" lon="3.19659">
        <ele>1214</ele>
        <time>2021-04-26T12:10:43+02:00</time>
      </trkpt>
      <trkpt lat="44.60281" lon="3.19666">
        <ele>1215</ele>
        <time>2021-04-26T12:10:48+02:00</time>
      </trkpt>
      <trkpt lat="44.60284" lon="3.19659">
        <ele>1216</ele>
        <time>2021-04-26T12:10:53+02:00</time>
      </trkpt>
      <trkpt lat="44.60277" lon="3.19647">
        <ele>1216</ele>
        <time>2021-04-26T12:10:58+02:00</time>
      </trkpt>
      <trkpt lat="44.60284" lon="3.19631">
        <ele>1219</ele>
        <time>2021-04-26T12:11:03+02:00</time>
      </trkpt>
      <trkpt lat="44.60295" lon="3.1962">
        <ele>1221</ele>
        <time>2021-04-26T12:11:08+02:00</time>
      </trkpt>
      <trkpt lat="44.603" lon="3.19615">
        <ele>1222</ele>
        <time>2021-04-26T12:11:13+02:00</time>
      </trkpt>
      <trkpt lat="44.60312" lon="3.19592">
        <ele>1225</ele>
        <time>2021-04-26T12:11:18+02:00</time>
      </trkpt>
      <trkpt lat="44.60321" lon="3.19582">
        <ele>1226</ele>
        <time>2021-04-26T12:11:23+02:00</time>
      </trkpt>
      <trkpt lat="44.60329" lon="3.19578">
        <ele>1227</ele>
        <time>2021-04-26T12:11:28+02:00</time>
      </trkpt>
      <trkpt lat="44.60351" lon="3.19574">
        <ele>1228</ele>
        <time>2021-04-26T12:11:33+02:00</time>
      </trkpt>
      <trkpt lat="44.60382" lon="3.19563">
        <ele>1231</ele>
        <time>2021-04-26T12:11:38+02:00</time>
      </trkpt>
      <trkpt lat="44.60407" lon="3.19551">
        <ele>1235</ele>
        <time>2021-04-26T12:11:43+02:00</time>
      </trkpt>
      <trkpt lat="44.60454" lon="3.19522">
        <ele>1240</ele>
        <time>2021-04-26T12:11:48+02:00</time>
      </trkpt>
      <trkpt lat="44.60502" lon="3.19482">
        <ele>1243</ele>
        <time>2021-04-26T12:11:53+02:00</time>
      </trkpt>
      <trkpt lat="44.60537" lon="3.19444">
        <ele>1244</ele>
        <time>2021-04-26T12:11:58+02:00</time>
      </trkpt>
      <trkpt lat="44.60577" lon="3.19409">
        <ele>1242</ele>
        <time>2021-04-26T12:12:03+02:00</time>
      </trkpt>
      <trkpt lat="44.60643" lon="3.19389">
        <ele>1239</ele>
        <time>2021-04-26T12:12:08+02:00</time>
      </trkpt>
      <trkpt lat="44.60645" lon="3.19343">
        <ele>1240</ele>
        <time>2021-04-26T12:12:13+02:00</time>
      </trkpt>
      <trkpt lat="44.60649" lon="3.19309">
        <ele>1240</ele>
        <time>2021-04-26T12:12:18+02:00</time>
      </trkpt>
      <trkpt lat="44.60662" lon="3.1924">
        <ele>1242</ele>
        <time>2021-04-26T12:12:23+02:00</time>
      </trkpt>
      <trkpt lat="44.60656" lon="3.19189">
        <ele>1241</ele>
        <time>2021-04-26T12:12:28+02:00</time>
      </trkpt>
      <trkpt lat="44.60678" lon="3.19074">
        <ele>1234</ele>
        <time>2021-04-26T12:12:33+02:00</time>
      </trkpt>
      <trkpt lat="44.60699" lon="3.19028">
        <ele>1229</ele>
        <time>2021-04-26T12:12:38+02:00</time>
      </trkpt>
      <trkpt lat="44.60732" lon="3.18988">
        <ele>1226</ele>
        <time>2021-04-26T12:12:43+02:00</time>
      </trkpt>
      <trkpt lat="44.60776" lon="3.18948">
        <ele>1221</ele>
        <time>2021-04-26T12:12:48+02:00</time>
      </trkpt>
      <trkpt lat="44.60785" lon="3.18944">
        <ele>1221</ele>
        <time>2021-04-26T12:12:53+02:00</time>
      </trkpt>
      <trkpt lat="44.60776" lon="3.18949">
        <ele>1221</ele>
        <time>2021-04-26T12:12:58+02:00</time>
      </trkpt>
      <trkpt lat="44.60773" lon="3.18941">
        <ele>1219</ele>
        <time>2021-04-26T12:13:03+02:00</time>
      </trkpt>
      <trkpt lat="44.60746" lon="3.1893">
        <ele>1215</ele>
        <time>2021-04-26T12:13:08+02:00</time>
      </trkpt>
      <trkpt lat="44.60762" lon="3.18875">
        <ele>1209</ele>
        <time>2021-04-26T12:13:13+02:00</time>
      </trkpt>
      <trkpt lat="44.60767" lon="3.18837">
        <ele>1208</ele>
        <time>2021-04-26T12:13:18+02:00</time>
      </trkpt>
      <trkpt lat="44.60764" lon="3.18832">
        <ele>1208</ele>
        <time>2021-04-26T12:13:23+02:00</time>
      </trkpt>
      <trkpt lat="44.60769" lon="3.18815">
        <ele>1208</ele>
        <time>2021-04-26T12:13:28+02:00</time>
      </trkpt>
      <trkpt lat="44.60776" lon="3.18779">
        <ele>1208</ele>
        <time>2021-04-26T12:13:33+02:00</time>
      </trkpt>
      <trkpt lat="44.60812" lon="3.18648">
        <ele>1213</ele>
        <time>2021-04-26T12:13:38+02:00</time>
      </trkpt>
      <trkpt lat="44.6083" lon="3.18595">
        <ele>1215</ele>
        <time>2021-04-26T12:13:43+02:00</time>
      </trkpt>
      <trkpt lat="44.6084" lon="3.18543">
        <ele>1218</ele>
        <time>2021-04-26T12:13:48+02:00</time>
      </trkpt>
      <trkpt lat="44.60849" lon="3.18474">
        <ele>1219</ele>
        <time>2021-04-26T12:13:53+02:00</time>
      </trkpt>
      <trkpt lat="44.60863" lon="3.18415">
        <ele>1217</ele>
        <time>2021-04-26T12:13:58+02:00</time>
      </trkpt>
      <trkpt lat="44.60884" lon="3.1835">
        <ele>1216</ele>
        <time>2021-04-26T12:14:03+02:00</time>
      </trkpt>
      <trkpt lat="44.60869" lon="3.1832">
        <ele>1216</ele>
        <time>2021-04-26T12:14:08+02:00</time>
      </trkpt>
      <trkpt lat="44.60862" lon="3.18273">
        <ele>1217</ele>
        <time>2021-04-26T12:14:13+02:00</time>
      </trkpt>
      <trkpt lat="44.60875" lon="3.18226">
        <ele>1219</ele>
        <time>2021-04-26T12:14:18+02:00</time>
      </trkpt>
      <trkpt lat="44.60902" lon="3.18153">
        <ele>1223</ele>
        <time>2021-04-26T12:14:23+02:00</time>
      </trkpt>
      <trkpt lat="44.60934" lon="3.18028">
        <ele>1227</ele>
        <time>2021-04-26T12:14:28+02:00</time>
      </trkpt>
      <trkpt lat="44.60954" lon="3.17987">
        <ele>1231</ele>
        <time>2021-04-26T12:14:33+02:00</time>
      </trkpt>
      <trkpt lat="44.6098" lon="3.17964">
        <ele>1236</ele>
        <time>2021-04-26T12:14:38+02:00</time>
      </trkpt>
      <trkpt lat="44.60999" lon="3.1795">
        <ele>1239</ele>
        <time>2021-04-26T12:14:43+02:00</time>
      </trkpt>
      <trkpt lat="44.61026" lon="3.17933">
        <ele>1244</ele>
        <time>2021-04-26T12:14:48+02:00</time>
      </trkpt>
      <trkpt lat="44.61034" lon="3.17922">
        <ele>1244</ele>
        <time>2021-04-26T12:14:53+02:00</time>
      </trkpt>
      <trkpt lat="44.61046" lon="3.17891">
        <ele>1245</ele>
        <time>2021-04-26T12:14:58+02:00</time>
      </trkpt>
      <trkpt lat="44.61072" lon="3.17851">
        <ele>1247</ele>
        <time>2021-04-26T12:15:03+02:00</time>
      </trkpt>
      <trkpt lat="44.61094" lon="3.17802">
        <ele>1248</ele>
        <time>2021-04-26T12:15:08+02:00</time>
      </trkpt>
      <trkpt lat="44.61101" lon="3.17747">
        <ele>1251</ele>
        <time>2021-04-26T12:15:13+02:00</time>
      </trkpt>
      <trkpt lat="44.6109" lon="3.17721">
        <ele>1251</ele>
        <time>2021-04-26T12:15:18+02:00</time>
      </trkpt>
      <trkpt lat="44.6109" lon="3.17696">
        <ele>1254</ele>
        <time>2021-04-26T12:15:23+02:00</time>
      </trkpt>
      <trkpt lat="44.61087" lon="3.17672">
        <ele>1256</ele>
        <time>2021-04-26T12:15:28+02:00</time>
      </trkpt>
      <trkpt lat="44.61088" lon="3.17658">
        <ele>1258</ele>
        <time>2021-04-26T12:15:33+02:00</time>
      </trkpt>
      <trkpt lat="44.61094" lon="3.17647">
        <ele>1260</ele>
        <time>2021-04-26T12:15:38+02:00</time>
      </trkpt>
      <trkpt lat="44.61097" lon="3.1763">
        <ele>1262</ele>
        <time>2021-04-26T12:15:43+02:00</time>
      </trkpt>
      <trkpt lat="44.61118" lon="3.17612">
        <ele>1266</ele>
        <time>2021-04-26T12:15:48+02:00</time>
      </trkpt>
      <trkpt lat="44.61159" lon="3.1759">
        <ele>1267</ele>
        <time>2021-04-26T12:15:53+02:00</time>
      </trkpt>
      <trkpt lat="44.61177" lon="3.17576">
        <ele>1268</ele>
        <time>2021-04-26T12:15:58+02:00</time>
      </trkpt>
      <trkpt lat="44.61177" lon="3.1758">
        <ele>1267</ele>
        <time>2021-04-26T12:16:03+02:00</time>
      </trkpt>
      <trkpt lat="44.61188" lon="3.17574">
        <ele>1267</ele>
        <time>2021-04-26T12:16:08+02:00</time>
      </trkpt>
      <trkpt lat="44.61228" lon="3.17578">
        <ele>1265</ele>
        <time>2021-04-26T12:16:13+02:00</time>
      </trkpt>
      <trkpt lat="44.61251" lon="3.17567">
        <ele>1265</ele>
        <time>2021-04-26T12:16:18+02:00</time>
      </trkpt>
      <trkpt lat="44.61275" lon="3.1753">
        <ele>1266</ele>
        <time>2021-04-26T12:16:23+02:00</time>
      </trkpt>
      <trkpt lat="44.61305" lon="3.17515">
        <ele>1266</ele>
        <time>2021-04-26T12:16:28+02:00</time>
      </trkpt>
      <trkpt lat="44.61348" lon="3.17499">
        <ele>1264</ele>
        <time>2021-04-26T12:16:33+02:00</time>
      </trkpt>
      <trkpt lat="44.61379" lon="3.17481">
        <ele>1263</ele>
        <time>2021-04-26T12:16:38+02:00</time>
      </trkpt>
      <trkpt lat="44.61403" lon="3.17471">
        <ele>1261</ele>
        <time>2021-04-26T12:16:43+02:00</time>
      </trkpt>
      <trkpt lat="44.61428" lon="3.17559">
        <ele>1251</ele>
        <time>2021-04-26T12:16:48+02:00</time>
      </trkpt>
      <trkpt lat="44.61442" lon="3.17591">
        <ele>1249</ele>
        <time>2021-04-26T12:16:53+02:00</time>
      </trkpt>
      <trkpt lat="44.61497" lon="3.17638">
        <ele>1244</ele>
        <time>2021-04-26T12:16:58+02:00</time>
      </trkpt>
      <trkpt lat="44.61565" lon="3.17682">
        <ele>1239</ele>
        <time>2021-04-26T12:17:03+02:00</time>
      </trkpt>
      <trkpt lat="44.61596" lon="3.17705">
        <ele>1236</ele>
        <time>2021-04-26T12:17:08+02:00</time>
      </trkpt>
      <trkpt lat="44.61622" lon="3.17716">
        <ele>1234</ele>
        <time>2021-04-26T12:17:13+02:00</time>
      </trkpt>
      <trkpt lat="44.61684" lon="3.17761">
        <ele>1229</ele>
        <time>2021-04-26T12:17:18+02:00</time>
      </trkpt>
      <trkpt lat="44.61725" lon="3.17756">
        <ele>1224</ele>
        <time>2021-04-26T12:17:23+02:00</time>
      </trkpt>
      <trkpt lat="44.61792" lon="3.17737">
        <ele>1216</ele>
        <time>2021-04-26T12:17:28+02:00</time>
      </trkpt>
      <trkpt lat="44.61849" lon="3.17789">
        <ele>1210</ele>
        <time>2021-04-26T12:17:33+02:00</time>
      </trkpt>
      <trkpt lat="44.61893" lon="3.17772">
        <ele>1209</ele>
        <time>2021-04-26T12:17:38+02:00</time>
      </trkpt>
      <trkpt lat="44.61926" lon="3.17781">
        <ele>1210</ele>
        <time>2021-04-26T12:17:43+02:00</time>
      </trkpt>
      <trkpt lat="44.61937" lon="3.17774">
        <ele>1212</ele>
        <time>2021-04-26T12:17:48+02:00</time>
      </trkpt>
      <trkpt lat="44.61934" lon="3.17766">
        <ele>1212</ele>
        <time>2021-04-26T12:17:53+02:00</time>
      </trkpt>
      <trkpt lat="44.6193" lon="3.17769">
        <ele>1211</ele>
        <time>2021-04-26T12:17:58+02:00</time>
      </trkpt>
      <trkpt lat="44.61934" lon="3.17772">
        <ele>1212</ele>
        <time>2021-04-26T12:18:03+02:00</time>
      </trkpt>
      <trkpt lat="44.61931" lon="3.17779">
        <ele>1211</ele>
        <time>2021-04-26T12:18:08+02:00</time>
      </trkpt>
      <trkpt lat="44.61919" lon="3.1779">
        <ele>1209</ele>
        <time>2021-04-26T12:18:13+02:00</time>
      </trkpt>
      <trkpt lat="44.61928" lon="3.17777">
        <ele>1211</ele>
        <time>2021-04-26T12:18:18+02:00</time>
      </trkpt>
      <trkpt lat="44.61933" lon="3.1778">
        <ele>1211</ele>
        <time>2021-04-26T12:18:23+02:00</time>
      </trkpt>
      <trkpt lat="44.61932" lon="3.17767">
        <ele>1211</ele>
        <time>2021-04-26T12:18:28+02:00</time>
      </trkpt>
      <trkpt lat="44.61935" lon="3.17768">
        <ele>1212</ele>
        <time>2021-04-26T12:18:33+02:00</time>
      </trkpt>
      <trkpt lat="44.61942" lon="3.17775">
        <ele>1212</ele>
        <time>2021-04-26T12:18:38+02:00</time>
      </trkpt>
      <trkpt lat="44.61954" lon="3.17773">
        <ele>1214</ele>
        <time>2021-04-26T12:18:43+02:00</time>
      </trkpt>
      <trkpt lat="44.61976" lon="3.17781">
        <ele>1217</ele>
        <time>2021-04-26T12:18:48+02:00</time>
      </trkpt>
      <trkpt lat="44.61998" lon="3.17792">
        <ele>1221</ele>
        <time>2021-04-26T12:18:53+02:00</time>
      </trkpt>
      <trkpt lat="44.62005" lon="3.17799">
        <ele>1223</ele>
        <time>2021-04-26T12:18:58+02:00</time>
      </trkpt>
      <trkpt lat="44.6201" lon="3.17776">
        <ele>1224</ele>
        <time>2021-04-26T12:19:03+02:00</time>
      </trkpt>
      <trkpt lat="44.62005" lon="3.17742">
        <ele>1226</ele>
        <time>2021-04-26T12:19:08+02:00</time>
      </trkpt>
      <trkpt lat="44.6199" lon="3.17696">
        <ele>1227</ele>
        <time>2021-04-26T12:19:13+02:00</time>
      </trkpt>
      <trkpt lat="44.61981" lon="3.17634">
        <ele>1230</ele>
        <time>2021-04-26T12:19:18+02:00</time>
      </trkpt>
      <trkpt lat="44.61977" lon="3.17484">
        <ele>1234</ele>
        <time>2021-04-26T12:19:23+02:00</time>
      </trkpt>
      <trkpt lat="44.61988" lon="3.17415">
        <ele>1235</ele>
        <time>2021-04-26T12:19:28+02:00</time>
      </trkpt>
      <trkpt lat="44.62021" lon="3.17349">
        <ele>1236</ele>
        <time>2021-04-26T12:19:33+02:00</time>
      </trkpt>
      <trkpt lat="44.62074" lon="3.17282">
        <ele>1237</ele>
        <time>2021-04-26T12:19:38+02:00</time>
      </trkpt>
      <trkpt lat="44.62114" lon="3.17183">
        <ele>1240</ele>
        <time>2021-04-26T12:19:43+02:00</time>
      </trkpt>
      <trkpt lat="44.62144" lon="3.17122">
        <ele>1247</ele>
        <time>2021-04-26T12:19:48+02:00</time>
      </trkpt>
      <trkpt lat="44.62144" lon="3.17091">
        <ele>1249</ele>
        <time>2021-04-26T12:19:53+02:00</time>
      </trkpt>
      <trkpt lat="44.62164" lon="3.17091">
        <ele>1252</ele>
        <time>2021-04-26T12:19:58+02:00</time>
      </trkpt>
      <trkpt lat="44.62198" lon="3.17101">
        <ele>1257</ele>
        <time>2021-04-26T12:20:03+02:00</time>
      </trkpt>
      <trkpt lat="44.62235" lon="3.17101">
        <ele>1260</ele>
        <time>2021-04-26T12:20:08+02:00</time>
      </trkpt>
      <trkpt lat="44.62263" lon="3.17105">
        <ele>1262</ele>
        <time>2021-04-26T12:20:13+02:00</time>
      </trkpt>
      <trkpt lat="44.62292" lon="3.17104">
        <ele>1263</ele>
        <time>2021-04-26T12:20:18+02:00</time>
      </trkpt>
      <trkpt lat="44.6231" lon="3.17107">
        <ele>1262</ele>
        <time>2021-04-26T12:20:23+02:00</time>
      </trkpt>
      <trkpt lat="44.62348" lon="3.1712">
        <ele>1258</ele>
        <time>2021-04-26T12:20:28+02:00</time>
      </trkpt>
      <trkpt lat="44.62421" lon="3.17133">
        <ele>1245</ele>
        <time>2021-04-26T12:20:33+02:00</time>
      </trkpt>
      <trkpt lat="44.62442" lon="3.1714">
        <ele>1241</ele>
        <time>2021-04-26T12:20:38+02:00</time>
      </trkpt>
      <trkpt lat="44.62439" lon="3.17164">
        <ele>1238</ele>
        <time>2021-04-26T12:20:43+02:00</time>
      </trkpt>
      <trkpt lat="44.62452" lon="3.17163">
        <ele>1237</ele>
        <time>2021-04-26T12:20:48+02:00</time>
      </trkpt>
      <trkpt lat="44.62475" lon="3.17114">
        <ele>1240</ele>
        <time>2021-04-26T12:20:53+02:00</time>
      </trkpt>
      <trkpt lat="44.62501" lon="3.17069">
        <ele>1243</ele>
        <time>2021-04-26T12:20:58+02:00</time>
      </trkpt>
      <trkpt lat="44.62537" lon="3.17044">
        <ele>1242</ele>
        <time>2021-04-26T12:21:03+02:00</time>
      </trkpt>
      <trkpt lat="44.62604" lon="3.16948">
        <ele>1249</ele>
        <time>2021-04-26T12:21:08+02:00</time>
      </trkpt>
      <trkpt lat="44.6265" lon="3.16907">
        <ele>1251</ele>
        <time>2021-04-26T12:21:13+02:00</time>
      </trkpt>
      <trkpt lat="44.62706" lon="3.16881">
        <ele>1252</ele>
        <time>2021-04-26T12:21:18+02:00</time>
      </trkpt>
      <trkpt lat="44.62796" lon="3.16853">
        <ele>1254</ele>
        <time>2021-04-26T12:21:23+02:00</time>
      </trkpt>
      <trkpt lat="44.62837" lon="3.16832">
        <ele>1257</ele>
        <time>2021-04-26T12:21:28+02:00</time>
      </trkpt>
      <trkpt lat="44.62898" lon="3.16783">
        <ele>1261</ele>
        <time>2021-04-26T12:21:33+02:00</time>
      </trkpt>
      <trkpt lat="44.62935" lon="3.16741">
        <ele>1264</ele>
        <time>2021-04-26T12:21:38+02:00</time>
      </trkpt>
      <trkpt lat="44.62967" lon="3.16683">
        <ele>1263</ele>
        <time>2021-04-26T12:21:43+02:00</time>
      </trkpt>
      <trkpt lat="44.62994" lon="3.16611">
        <ele>1261</ele>
        <time>2021-04-26T12:21:48+02:00</time>
      </trkpt>
      <trkpt lat="44.63025" lon="3.16562">
        <ele>1261</ele>
        <time>2021-04-26T12:21:53+02:00</time>
      </trkpt>
      <trkpt lat="44.6308" lon="3.16524">
        <ele>1259</ele>
        <time>2021-04-26T12:21:58+02:00</time>
      </trkpt>
      <trkpt lat="44.63098" lon="3.16472">
        <ele>1258</ele>
        <time>2021-04-26T12:22:03+02:00</time>
      </trkpt>
      <trkpt lat="44.63099" lon="3.16261">
        <ele>1257</ele>
        <time>2021-04-26T12:22:08+02:00</time>
      </trkpt>
      <trkpt lat="44.63109" lon="3.16213">
        <ele>1257</ele>
        <time>2021-04-26T12:22:13+02:00</time>
      </trkpt>
      <trkpt lat="44.63136" lon="3.16179">
        <ele>1257</ele>
        <time>2021-04-26T12:22:18+02:00</time>
      </trkpt>
      <trkpt lat="44.632" lon="3.16148">
        <ele>1255</ele>
        <time>2021-04-26T12:22:23+02:00</time>
      </trkpt>
      <trkpt lat="44.63224" lon="3.16107">
        <ele>1253</ele>
        <time>2021-04-26T12:22:28+02:00</time>
      </trkpt>
      <trkpt lat="44.63232" lon="3.16056">
        <ele>1252</ele>
        <time>2021-04-26T12:22:33+02:00</time>
      </trkpt>
      <trkpt lat="44.63221" lon="3.15993">
        <ele>1253</ele>
        <time>2021-04-26T12:22:38+02:00</time>
      </trkpt>
      <trkpt lat="44.63115" lon="3.15711">
        <ele>1251</ele>
        <time>2021-04-26T12:22:43+02:00</time>
      </trkpt>
      <trkpt lat="44.6308" lon="3.1561">
        <ele>1249</ele>
        <time>2021-04-26T12:22:48+02:00</time>
      </trkpt>
      <trkpt lat="44.63092" lon="3.15532">
        <ele>1248</ele>
        <time>2021-04-26T12:22:53+02:00</time>
      </trkpt>
      <trkpt lat="44.63196" lon="3.15326">
        <ele>1244</ele>
        <time>2021-04-26T12:22:58+02:00</time>
      </trkpt>
      <trkpt lat="44.63218" lon="3.15269">
        <ele>1245</ele>
        <time>2021-04-26T12:23:03+02:00</time>
      </trkpt>
      <trkpt lat="44.6324" lon="3.15242">
        <ele>1246</ele>
        <time>2021-04-26T12:23:08+02:00</time>
      </trkpt>
      <trkpt lat="44.63255" lon="3.15248">
        <ele>1247</ele>
        <time>2021-04-26T12:23:13+02:00</time>
      </trkpt>
      <trkpt lat="44.63267" lon="3.15261">
        <ele>1248</ele>
        <time>2021-04-26T12:23:18+02:00</time>
      </trkpt>
      <trkpt lat="44.63306" lon="3.15283">
        <ele>1250</ele>
        <time>2021-04-26T12:23:23+02:00</time>
      </trkpt>
      <trkpt lat="44.63323" lon="3.15296">
        <ele>1250</ele>
        <time>2021-04-26T12:23:28+02:00</time>
      </trkpt>
      <trkpt lat="44.63363" lon="3.15306">
        <ele>1251</ele>
        <time>2021-04-26T12:23:33+02:00</time>
      </trkpt>
      <trkpt lat="44.63435" lon="3.15296">
        <ele>1254</ele>
        <time>2021-04-26T12:23:38+02:00</time>
      </trkpt>
      <trkpt lat="44.6347" lon="3.15297">
        <ele>1255</ele>
        <time>2021-04-26T12:23:43+02:00</time>
      </trkpt>
      <trkpt lat="44.63557" lon="3.15315">
        <ele>1254</ele>
        <time>2021-04-26T12:23:48+02:00</time>
      </trkpt>
      <trkpt lat="44.63618" lon="3.15287">
        <ele>1253</ele>
        <time>2021-04-26T12:23:53+02:00</time>
      </trkpt>
      <trkpt lat="44.6366" lon="3.15304">
        <ele>1252</ele>
        <time>2021-04-26T12:23:58+02:00</time>
      </trkpt>
      <trkpt lat="44.63697" lon="3.15312">
        <ele>1251</ele>
        <time>2021-04-26T12:24:03+02:00</time>
      </trkpt>
      <trkpt lat="44.6373" lon="3.15333">
        <ele>1249</ele>
        <time>2021-04-26T12:24:08+02:00</time>
      </trkpt>
      <trkpt lat="44.63796" lon="3.15338">
        <ele>1243</ele>
        <time>2021-04-26T12:24:13+02:00</time>
      </trkpt>
      <trkpt lat="44.63847" lon="3.1535">
        <ele>1242</ele>
        <time>2021-04-26T12:24:18+02:00</time>
      </trkpt>
      <trkpt lat="44.63899" lon="3.15382">
        <ele>1245</ele>
        <time>2021-04-26T12:24:23+02:00</time>
      </trkpt>
      <trkpt lat="44.63933" lon="3.15415">
        <ele>1247</ele>
        <time>2021-04-26T12:24:28+02:00</time>
      </trkpt>
      <trkpt lat="44.63975" lon="3.1546">
        <ele>1245</ele>
        <time>2021-04-26T12:24:33+02:00</time>
      </trkpt>
      <trkpt lat="44.64016" lon="3.15498">
        <ele>1247</ele>
        <time>2021-04-26T12:24:38+02:00</time>
      </trkpt>
      <trkpt lat="44.64024" lon="3.15512">
        <ele>1246</ele>
        <time>2021-04-26T12:24:43+02:00</time>
      </trkpt>
      <trkpt lat="44.64028" lon="3.15508">
        <ele>1247</ele>
        <time>2021-04-26T12:24:48+02:00</time>
      </trkpt>
      <trkpt lat="44.64016" lon="3.15474">
        <ele>1249</ele>
        <time>2021-04-26T12:24:53+02:00</time>
      </trkpt>
      <trkpt lat="44.64016" lon="3.15443">
        <ele>1253</ele>
        <time>2021-04-26T12:24:58+02:00</time>
      </trkpt>
      <trkpt lat="44.64031" lon="3.15434">
        <ele>1255</ele>
        <time>2021-04-26T12:25:03+02:00</time>
      </trkpt>
      <trkpt lat="44.64045" lon="3.15412">
        <ele>1259</ele>
        <time>2021-04-26T12:25:08+02:00</time>
      </trkpt>
      <trkpt lat="44.64049" lon="3.15375">
        <ele>1259</ele>
        <time>2021-04-26T12:25:13+02:00</time>
      </trkpt>
      <trkpt lat="44.64063" lon="3.15343">
        <ele>1259</ele>
        <time>2021-04-26T12:25:18+02:00</time>
      </trkpt>
      <trkpt lat="44.641" lon="3.15311">
        <ele>1258</ele>
        <time>2021-04-26T12:25:23+02:00</time>
      </trkpt>
      <trkpt lat="44.64204" lon="3.15264">
        <ele>1258</ele>
        <time>2021-04-26T12:25:28+02:00</time>
      </trkpt>
      <trkpt lat="44.64261" lon="3.15252">
        <ele>1259</ele>
        <time>2021-04-26T12:25:33+02:00</time>
      </trkpt>
      <trkpt lat="44.643" lon="3.15235">
        <ele>1258</ele>
        <time>2021-04-26T12:25:38+02:00</time>
      </trkpt>
      <trkpt lat="44.64351" lon="3.15205">
        <ele>1256</ele>
        <time>2021-04-26T12:25:43+02:00</time>
      </trkpt>
      <trkpt lat="44.64509" lon="3.15119">
        <ele>1249</ele>
        <time>2021-04-26T12:25:48+02:00</time>
      </trkpt>
      <trkpt lat="44.6457" lon="3.151">
        <ele>1245</ele>
        <time>2021-04-26T12:25:53+02:00</time>
      </trkpt>
      <trkpt lat="44.64614" lon="3.15082">
        <ele>1241</ele>
        <time>2021-04-26T12:25:58+02:00</time>
      </trkpt>
      <trkpt lat="44.64691" lon="3.15064">
        <ele>1237</ele>
        <time>2021-04-26T12:26:03+02:00</time>
      </trkpt>
      <trkpt lat="44.64773" lon="3.15084">
        <ele>1236</ele>
        <time>2021-04-26T12:26:08+02:00</time>
      </trkpt>
      <trkpt lat="44.64849" lon="3.15119">
        <ele>1234</ele>
        <time>2021-04-26T12:26:13+02:00</time>
      </trkpt>
      <trkpt lat="44.64893" lon="3.15129">
        <ele>1232</ele>
        <time>2021-04-26T12:26:18+02:00</time>
      </trkpt>
      <trkpt lat="44.64941" lon="3.15128">
        <ele>1230</ele>
        <time>2021-04-26T12:26:23+02:00</time>
      </trkpt>
      <trkpt lat="44.64984" lon="3.15121">
        <ele>1230</ele>
        <time>2021-04-26T12:26:28+02:00</time>
      </trkpt>
      <trkpt lat="44.65049" lon="3.15165">
        <ele>1232</ele>
        <time>2021-04-26T12:26:33+02:00</time>
      </trkpt>
      <trkpt lat="44.651" lon="3.15187">
        <ele>1233</ele>
        <time>2021-04-26T12:26:38+02:00</time>
      </trkpt>
      <trkpt lat="44.65157" lon="3.15204">
        <ele>1236</ele>
        <time>2021-04-26T12:26:43+02:00</time>
      </trkpt>
      <trkpt lat="44.65204" lon="3.15222">
        <ele>1239</ele>
        <time>2021-04-26T12:26:48+02:00</time>
      </trkpt>
      <trkpt lat="44.65253" lon="3.15219">
        <ele>1242</ele>
        <time>2021-04-26T12:26:53+02:00</time>
      </trkpt>
      <trkpt lat="44.65302" lon="3.15222">
        <ele>1244</ele>
        <time>2021-04-26T12:26:58+02:00</time>
      </trkpt>
      <trkpt lat="44.65367" lon="3.15238">
        <ele>1247</ele>
        <time>2021-04-26T12:27:03+02:00</time>
      </trkpt>
      <trkpt lat="44.65404" lon="3.1526">
        <ele>1250</ele>
        <time>2021-04-26T12:27:08+02:00</time>
      </trkpt>
      <trkpt lat="44.65523" lon="3.15357">
        <ele>1255</ele>
        <time>2021-04-26T12:27:13+02:00</time>
      </trkpt>
      <trkpt lat="44.65601" lon="3.15425">
        <ele>1254</ele>
        <time>2021-04-26T12:27:18+02:00</time>
      </trkpt>
      <trkpt lat="44.65746" lon="3.1547">
        <ele>1249</ele>
        <time>2021-04-26T12:27:23+02:00</time>
      </trkpt>
      <trkpt lat="44.6586" lon="3.1551">
        <ele>1245</ele>
        <time>2021-04-26T12:27:28+02:00</time>
      </trkpt>
      <trkpt lat="44.65928" lon="3.15543">
        <ele>1243</ele>
        <time>2021-04-26T12:27:33+02:00</time>
      </trkpt>
      <trkpt lat="44.6606" lon="3.15637">
        <ele>1239</ele>
        <time>2021-04-26T12:27:38+02:00</time>
      </trkpt>
      <trkpt lat="44.66111" lon="3.15666">
        <ele>1239</ele>
        <time>2021-04-26T12:27:43+02:00</time>
      </trkpt>
      <trkpt lat="44.66122" lon="3.15715">
        <ele>1238</ele>
        <time>2021-04-26T12:27:48+02:00</time>
      </trkpt>
      <trkpt lat="44.66156" lon="3.15763">
        <ele>1239</ele>
        <time>2021-04-26T12:27:53+02:00</time>
      </trkpt>
      <trkpt lat="44.66179" lon="3.15784">
        <ele>1241</ele>
        <time>2021-04-26T12:27:58+02:00</time>
      </trkpt>
      <trkpt lat="44.66204" lon="3.15803">
        <ele>1243</ele>
        <time>2021-04-26T12:28:03+02:00</time>
      </trkpt>
      <trkpt lat="44.66236" lon="3.15823">
        <ele>1246</ele>
        <time>2021-04-26T12:28:08+02:00</time>
      </trkpt>
      <trkpt lat="44.66272" lon="3.1584">
        <ele>1249</ele>
        <time>2021-04-26T12:28:13+02:00</time>
      </trkpt>
      <trkpt lat="44.66313" lon="3.15852">
        <ele>1252</ele>
        <time>2021-04-26T12:28:18+02:00</time>
      </trkpt>
      <trkpt lat="44.66351" lon="3.15861">
        <ele>1255</ele>
        <time>2021-04-26T12:28:23+02:00</time>
      </trkpt>
      <trkpt lat="44.66387" lon="3.15884">
        <ele>1258</ele>
        <time>2021-04-26T12:28:28+02:00</time>
      </trkpt>
      <trkpt lat="44.66417" lon="3.15923">
        <ele>1258</ele>
        <time>2021-04-26T12:28:33+02:00</time>
      </trkpt>
      <trkpt lat="44.66443" lon="3.15934">
        <ele>1259</ele>
        <time>2021-04-26T12:28:38+02:00</time>
      </trkpt>
      <trkpt lat="44.66522" lon="3.15949">
        <ele>1260</ele>
        <time>2021-04-26T12:28:43+02:00</time>
      </trkpt>
      <trkpt lat="44.66561" lon="3.15951">
        <ele>1260</ele>
        <time>2021-04-26T12:28:48+02:00</time>
      </trkpt>
      <trkpt lat="44.66651" lon="3.15962">
        <ele>1260</ele>
        <time>2021-04-26T12:28:53+02:00</time>
      </trkpt>
      <trkpt lat="44.66818" lon="3.15999">
        <ele>1255</ele>
        <time>2021-04-26T12:28:58+02:00</time>
      </trkpt>
      <trkpt lat="44.66866" lon="3.16067">
        <ele>1250</ele>
        <time>2021-04-26T12:29:03+02:00</time>
      </trkpt>
      <trkpt lat="44.66921" lon="3.16137">
        <ele>1249</ele>
        <time>2021-04-26T12:29:08+02:00</time>
      </trkpt>
      <trkpt lat="44.66998" lon="3.16226">
        <ele>1252</ele>
        <time>2021-04-26T12:29:13+02:00</time>
      </trkpt>
      <trkpt lat="44.67169" lon="3.16438">
        <ele>1252</ele>
        <time>2021-04-26T12:29:18+02:00</time>
      </trkpt>
      <trkpt lat="44.67195" lon="3.16432">
        <ele>1249</ele>
        <time>2021-04-26T12:29:23+02:00</time>
      </trkpt>
      <trkpt lat="44.67202" lon="3.16427">
        <ele>1249</ele>
        <time>2021-04-26T12:29:28+02:00</time>
      </trkpt>
      <trkpt lat="44.67379" lon="3.16369">
        <ele>1243.8</ele>
      </trkpt>
      <trkpt lat="44.67442" lon="3.16765">
        <ele>1208.7</ele>
      </trkpt>
      <trkpt lat="44.67422" lon="3.17125">
        <ele>1183.3</ele>
      </trkpt>
      <trkpt lat="44.67405" lon="3.1743">
        <ele>1177</ele>
      </trkpt>
      <trkpt lat="44.67365" lon="3.17554">
        <ele>1179.2</ele>
      </trkpt>
      <trkpt lat="44.67362" lon="3.17746">
        <ele>1179</ele>
      </trkpt>
      <trkpt lat="44.67402" lon="3.17818">
        <ele>1181.5</ele>
      </trkpt>
      <trkpt lat="44.67371" lon="3.18034">
        <ele>1183.5</ele>
      </trkpt>
      <trkpt lat="44.67251" lon="3.1825">
        <ele>1188.1</ele>
      </trkpt>
      <trkpt lat="44.67265" lon="3.18431">
        <ele>1189.5</ele>
      </trkpt>
      <trkpt lat="44.673" lon="3.18587">
        <ele>1192.3</ele>
      </trkpt>
      <trkpt lat="44.67376" lon="3.18591">
        <ele>1200.1</ele>
      </trkpt>
      <trkpt lat="44.67448" lon="3.18651">
        <ele>1210.3</ele>
      </trkpt>
      <trkpt lat="44.67667" lon="3.18703">
        <ele>1226.6</ele>
      </trkpt>
      <trkpt lat="44.67749" lon="3.18755">
        <ele>1233.9</ele>
      </trkpt>
      <trkpt lat="44.67849" lon="3.18991">
        <ele>1233.3</ele>
      </trkpt>
      <trkpt lat="44.68048" lon="3.19812">
        <ele>1220.6</ele>
      </trkpt>
      <trkpt lat="44.68048" lon="3.19828">
        <ele>1221</ele>
        <time>2021-05-02T18:58:27+02:00</time>
      </trkpt>
      <trkpt lat="44.68145" lon="3.19873">
        <ele>1220</ele>
        <time>2021-05-02T18:58:22+02:00</time>
      </trkpt>
      <trkpt lat="44.68358" lon="3.19964">
        <ele>1220</ele>
        <time>2021-05-02T18:58:17+02:00</time>
      </trkpt>
      <trkpt lat="44.68413" lon="3.20101">
        <ele>1223</ele>
        <time>2021-05-02T18:58:12+02:00</time>
      </trkpt>
      <trkpt lat="44.68534" lon="3.20303">
        <ele>1213</ele>
        <time>2021-05-02T18:58:07+02:00</time>
      </trkpt>
      <trkpt lat="44.68594" lon="3.20439">
        <ele>1213</ele>
        <time>2021-05-02T18:58:02+02:00</time>
      </trkpt>
      <trkpt lat="44.68834" lon="3.20608">
        <ele>1213</ele>
        <time>2021-05-02T18:57:57+02:00</time>
      </trkpt>
      <trkpt lat="44.68908" lon="3.20752">
        <ele>1212</ele>
        <time>2021-05-02T18:57:52+02:00</time>
      </trkpt>
      <trkpt lat="44.68922" lon="3.21109">
        <ele>1204</ele>
        <time>2021-05-02T18:57:47+02:00</time>
      </trkpt>
      <trkpt lat="44.68853" lon="3.21213">
        <ele>1205</ele>
        <time>2021-05-02T18:57:42+02:00</time>
      </trkpt>
      <trkpt lat="44.68908" lon="3.21252">
        <ele>1205</ele>
        <time>2021-05-02T18:57:37+02:00</time>
      </trkpt>
      <trkpt lat="44.6895" lon="3.21252">
        <ele>1207</ele>
        <time>2021-05-02T18:57:32+02:00</time>
      </trkpt>
      <trkpt lat="44.69116" lon="3.21207">
        <ele>1209</ele>
        <time>2021-05-02T18:57:27+02:00</time>
      </trkpt>
      <trkpt lat="44.69236" lon="3.21246">
        <ele>1212</ele>
        <time>2021-05-02T18:57:22+02:00</time>
      </trkpt>
      <trkpt lat="44.69347" lon="3.2133">
        <ele>1209</ele>
        <time>2021-05-02T18:57:17+02:00</time>
      </trkpt>
      <trkpt lat="44.69451" lon="3.21376">
        <ele>1205</ele>
        <time>2021-05-02T18:57:12+02:00</time>
      </trkpt>
      <trkpt lat="44.69515" lon="3.21441">
        <ele>1204</ele>
        <time>2021-05-02T18:57:07+02:00</time>
      </trkpt>
      <trkpt lat="44.69604" lon="3.21461">
        <ele>1199</ele>
        <time>2021-05-02T18:57:02+02:00</time>
      </trkpt>
      <trkpt lat="44.69867" lon="3.21622">
        <ele>1190</ele>
        <time>2021-05-02T18:56:57+02:00</time>
      </trkpt>
      <trkpt lat="44.70101" lon="3.21775">
        <ele>1192</ele>
        <time>2021-05-02T18:56:52+02:00</time>
      </trkpt>
      <trkpt lat="44.70212" lon="3.2175">
        <ele>1187</ele>
        <time>2021-05-02T18:56:47+02:00</time>
      </trkpt>
      <trkpt lat="44.70481" lon="3.21829">
        <ele>1185</ele>
        <time>2021-05-02T18:56:42+02:00</time>
      </trkpt>
      <trkpt lat="44.7058" lon="3.21857">
        <ele>1178</ele>
        <time>2021-05-02T18:56:37+02:00</time>
      </trkpt>
      <trkpt lat="44.70733" lon="3.21854">
        <ele>1176</ele>
        <time>2021-05-02T18:56:32+02:00</time>
      </trkpt>
      <trkpt lat="44.70771" lon="3.21871">
        <ele>1170</ele>
        <time>2021-05-02T18:56:27+02:00</time>
      </trkpt>
      <trkpt lat="44.7086" lon="3.2186">
        <ele>1160</ele>
        <time>2021-05-02T18:56:22+02:00</time>
      </trkpt>
      <trkpt lat="44.7089" lon="3.2184">
        <ele>1158</ele>
        <time>2021-05-02T18:56:17+02:00</time>
      </trkpt>
      <trkpt lat="44.71061" lon="3.21795">
        <ele>1146</ele>
        <time>2021-05-02T18:56:12+02:00</time>
      </trkpt>
      <trkpt lat="44.71186" lon="3.21829">
        <ele>1138</ele>
        <time>2021-05-02T18:56:07+02:00</time>
      </trkpt>
      <trkpt lat="44.71232" lon="3.21936">
        <ele>1133</ele>
        <time>2021-05-02T18:56:02+02:00</time>
      </trkpt>
      <trkpt lat="44.7129" lon="3.22259">
        <ele>1118.7</ele>
      </trkpt>
      <trkpt lat="44.71373" lon="3.22477">
        <ele>1101.8</ele>
      </trkpt>
      <trkpt lat="44.71387" lon="3.22585">
        <ele>1098.5</ele>
      </trkpt>
      <trkpt lat="44.7127" lon="3.22953">
        <ele>1084.2</ele>
      </trkpt>
      <trkpt lat="44.71258" lon="3.23202">
        <ele>1092.2</ele>
      </trkpt>
      <trkpt lat="44.7123" lon="3.23301">
        <ele>1090.6</ele>
      </trkpt>
      <trkpt lat="44.71226" lon="3.23474">
        <ele>1091.7</ele>
      </trkpt>
    </trkseg>
  </trk>
</gpx>